<?xml version="1.0" encoding="UTF-8" standalone="no" ?>
<gpx xmlns="http://www.topografix.com/GPX/1/1" xmlns:xsi="http://www.w3.org/2001/XMLSchema-instance" xsi:schemaLocation="http://www.topografix.com/GPX/1/1 http://www.topografix.com/GPX/1/1/gpx.xsd" version="1.1" creator="VisuGPX - https://www.visugpx.com">
  <metadata>
    <name>Star Wars :D</name>
    <desc><![CDATA[Géocaching Star Wars ]]></desc>
  </metadata>
  <trk>
    <name><![CDATA[08-AOU-16 23:24:58]]></name>
    <trkseg>
      <trkpt lat="48.90398" lon="2.06328">
        <ele>98.67</ele>
        <time>2016-07-30T07:03:51Z</time>
      </trkpt>
      <trkpt lat="48.90406" lon="2.06345">
        <ele>81.37</ele>
        <time>2016-07-30T07:04:12Z</time>
      </trkpt>
      <trkpt lat="48.90403" lon="2.06348">
        <ele>75.6</ele>
        <time>2016-07-30T07:04:33Z</time>
      </trkpt>
      <trkpt lat="48.90405" lon="2.0635">
        <ele>72.24</ele>
        <time>2016-07-30T07:04:55Z</time>
      </trkpt>
      <trkpt lat="48.90405" lon="2.06342">
        <ele>71.27</ele>
        <time>2016-07-30T07:05:22Z</time>
      </trkpt>
      <trkpt lat="48.90405" lon="2.06349">
        <ele>71.27</ele>
        <time>2016-07-30T07:05:40Z</time>
      </trkpt>
      <trkpt lat="48.90405" lon="2.06349">
        <ele>73.2</ele>
        <time>2016-07-30T07:06:07Z</time>
      </trkpt>
      <trkpt lat="48.90404" lon="2.06348">
        <ele>76.56</ele>
        <time>2016-07-30T07:06:31Z</time>
      </trkpt>
      <trkpt lat="48.90408" lon="2.06355">
        <ele>76.56</ele>
        <time>2016-07-30T07:07:05Z</time>
      </trkpt>
      <trkpt lat="48.90405" lon="2.06355">
        <ele>77.52</ele>
        <time>2016-07-30T07:07:26Z</time>
      </trkpt>
      <trkpt lat="48.90405" lon="2.06353">
        <ele>76.56</ele>
        <time>2016-07-30T07:07:50Z</time>
      </trkpt>
      <trkpt lat="48.90404" lon="2.06351">
        <ele>75.6</ele>
        <time>2016-07-30T07:08:19Z</time>
      </trkpt>
      <trkpt lat="48.90403" lon="2.06349">
        <ele>72.24</ele>
        <time>2016-07-30T07:08:57Z</time>
      </trkpt>
      <trkpt lat="48.90401" lon="2.06349">
        <ele>71.27</ele>
        <time>2016-07-30T07:09:27Z</time>
      </trkpt>
      <trkpt lat="48.90401" lon="2.06349">
        <ele>70.79</ele>
        <time>2016-07-30T07:09:56Z</time>
      </trkpt>
      <trkpt lat="48.90401" lon="2.0635">
        <ele>71.76</ele>
        <time>2016-07-30T07:10:19Z</time>
      </trkpt>
      <trkpt lat="48.90402" lon="2.06352">
        <ele>72.24</ele>
        <time>2016-07-30T07:10:47Z</time>
      </trkpt>
      <trkpt lat="48.90402" lon="2.06355">
        <ele>72.72</ele>
        <time>2016-07-30T07:11:12Z</time>
      </trkpt>
      <trkpt lat="48.90403" lon="2.06355">
        <ele>71.76</ele>
        <time>2016-07-30T07:11:44Z</time>
      </trkpt>
      <trkpt lat="48.90404" lon="2.06354">
        <ele>71.76</ele>
        <time>2016-07-30T07:12:05Z</time>
      </trkpt>
      <trkpt lat="48.90404" lon="2.06355">
        <ele>73.2</ele>
        <time>2016-07-30T07:12:21Z</time>
      </trkpt>
      <trkpt lat="48.90399" lon="2.06358">
        <ele>73.68</ele>
        <time>2016-07-30T07:12:44Z</time>
      </trkpt>
      <trkpt lat="48.90382" lon="2.0637">
        <ele>73.68</ele>
        <time>2016-07-30T07:13:01Z</time>
      </trkpt>
      <trkpt lat="48.90372" lon="2.06377">
        <ele>76.08</ele>
        <time>2016-07-30T07:13:16Z</time>
      </trkpt>
      <trkpt lat="48.90377" lon="2.06377">
        <ele>75.12</ele>
        <time>2016-07-30T07:13:24Z</time>
      </trkpt>
      <trkpt lat="48.90396" lon="2.06368">
        <ele>76.56</ele>
        <time>2016-07-30T07:13:41Z</time>
      </trkpt>
      <trkpt lat="48.90408" lon="2.06367">
        <ele>76.08</ele>
        <time>2016-07-30T07:13:57Z</time>
      </trkpt>
      <trkpt lat="48.90409" lon="2.06367">
        <ele>76.56</ele>
        <time>2016-07-30T07:14:15Z</time>
      </trkpt>
      <trkpt lat="48.90406" lon="2.06366">
        <ele>75.6</ele>
        <time>2016-07-30T07:14:29Z</time>
      </trkpt>
      <trkpt lat="48.90393" lon="2.06368">
        <ele>75.12</ele>
        <time>2016-07-30T07:14:42Z</time>
      </trkpt>
      <trkpt lat="48.90384" lon="2.06372">
        <ele>75.6</ele>
        <time>2016-07-30T07:14:55Z</time>
      </trkpt>
      <trkpt lat="48.90376" lon="2.06372">
        <ele>77.04</ele>
        <time>2016-07-30T07:15:13Z</time>
      </trkpt>
      <trkpt lat="48.90372" lon="2.06367">
        <ele>75.6</ele>
        <time>2016-07-30T07:15:26Z</time>
      </trkpt>
      <trkpt lat="48.90371" lon="2.06367">
        <ele>75.6</ele>
        <time>2016-07-30T07:15:31Z</time>
      </trkpt>
      <trkpt lat="48.90368" lon="2.06364">
        <ele>75.12</ele>
        <time>2016-07-30T07:15:42Z</time>
      </trkpt>
      <trkpt lat="48.90352" lon="2.06332">
        <ele>73.2</ele>
        <time>2016-07-30T07:16:01Z</time>
      </trkpt>
      <trkpt lat="48.90335" lon="2.06295">
        <ele>72.24</ele>
        <time>2016-07-30T07:16:22Z</time>
      </trkpt>
      <trkpt lat="48.90321" lon="2.06268">
        <ele>75.12</ele>
        <time>2016-07-30T07:16:40Z</time>
      </trkpt>
      <trkpt lat="48.90303" lon="2.06235">
        <ele>74.64</ele>
        <time>2016-07-30T07:17:01Z</time>
      </trkpt>
      <trkpt lat="48.90288" lon="2.06206">
        <ele>73.68</ele>
        <time>2016-07-30T07:17:19Z</time>
      </trkpt>
      <trkpt lat="48.90268" lon="2.0617">
        <ele>75.12</ele>
        <time>2016-07-30T07:17:41Z</time>
      </trkpt>
      <trkpt lat="48.90249" lon="2.06139">
        <ele>76.08</ele>
        <time>2016-07-30T07:18:01Z</time>
      </trkpt>
      <trkpt lat="48.90231" lon="2.06106">
        <ele>78.48</ele>
        <time>2016-07-30T07:18:22Z</time>
      </trkpt>
      <trkpt lat="48.90214" lon="2.06071">
        <ele>79.93</ele>
        <time>2016-07-30T07:18:43Z</time>
      </trkpt>
      <trkpt lat="48.90206" lon="2.06063">
        <ele>80.89</ele>
        <time>2016-07-30T07:18:50Z</time>
      </trkpt>
      <trkpt lat="48.90201" lon="2.06066">
        <ele>83.29</ele>
        <time>2016-07-30T07:19:05Z</time>
      </trkpt>
      <trkpt lat="48.902" lon="2.06066">
        <ele>84.25</ele>
        <time>2016-07-30T07:19:18Z</time>
      </trkpt>
      <trkpt lat="48.90201" lon="2.06066">
        <ele>86.18</ele>
        <time>2016-07-30T07:19:42Z</time>
      </trkpt>
      <trkpt lat="48.90201" lon="2.06068">
        <ele>87.14</ele>
        <time>2016-07-30T07:19:59Z</time>
      </trkpt>
      <trkpt lat="48.90201" lon="2.06068">
        <ele>87.14</ele>
        <time>2016-07-30T07:20:26Z</time>
      </trkpt>
      <trkpt lat="48.90199" lon="2.06068">
        <ele>88.1</ele>
        <time>2016-07-30T07:21:00Z</time>
      </trkpt>
      <trkpt lat="48.902" lon="2.0607">
        <ele>88.58</ele>
        <time>2016-07-30T07:21:16Z</time>
      </trkpt>
      <trkpt lat="48.902" lon="2.0607">
        <ele>89.54</ele>
        <time>2016-07-30T07:21:46Z</time>
      </trkpt>
      <trkpt lat="48.902" lon="2.06068">
        <ele>89.06</ele>
        <time>2016-07-30T07:22:10Z</time>
      </trkpt>
      <trkpt lat="48.90197" lon="2.06068">
        <ele>89.06</ele>
        <time>2016-07-30T07:22:45Z</time>
      </trkpt>
      <trkpt lat="48.90196" lon="2.06068">
        <ele>89.54</ele>
        <time>2016-07-30T07:23:18Z</time>
      </trkpt>
      <trkpt lat="48.90195" lon="2.06068">
        <ele>90.5</ele>
        <time>2016-07-30T07:23:48Z</time>
      </trkpt>
      <trkpt lat="48.90195" lon="2.06067">
        <ele>91.94</ele>
        <time>2016-07-30T07:24:10Z</time>
      </trkpt>
      <trkpt lat="48.90195" lon="2.06067">
        <ele>91.94</ele>
        <time>2016-07-30T07:24:29Z</time>
      </trkpt>
      <trkpt lat="48.90196" lon="2.06067">
        <ele>91.46</ele>
        <time>2016-07-30T07:24:47Z</time>
      </trkpt>
      <trkpt lat="48.90196" lon="2.06065">
        <ele>91.46</ele>
        <time>2016-07-30T07:25:14Z</time>
      </trkpt>
      <trkpt lat="48.90196" lon="2.06066">
        <ele>90.98</ele>
        <time>2016-07-30T07:25:44Z</time>
      </trkpt>
      <trkpt lat="48.90196" lon="2.06067">
        <ele>90.98</ele>
        <time>2016-07-30T07:26:09Z</time>
      </trkpt>
      <trkpt lat="48.90197" lon="2.06068">
        <ele>90.98</ele>
        <time>2016-07-30T07:26:35Z</time>
      </trkpt>
      <trkpt lat="48.90198" lon="2.06068">
        <ele>90.5</ele>
        <time>2016-07-30T07:26:50Z</time>
      </trkpt>
      <trkpt lat="48.90198" lon="2.06068">
        <ele>90.98</ele>
        <time>2016-07-30T07:27:18Z</time>
      </trkpt>
      <trkpt lat="48.90198" lon="2.0607">
        <ele>90.02</ele>
        <time>2016-07-30T07:27:41Z</time>
      </trkpt>
      <trkpt lat="48.90202" lon="2.06069">
        <ele>90.02</ele>
        <time>2016-07-30T07:27:44Z</time>
      </trkpt>
      <trkpt lat="48.90204" lon="2.06066">
        <ele>89.06</ele>
        <time>2016-07-30T07:27:50Z</time>
      </trkpt>
      <trkpt lat="48.90212" lon="2.06077">
        <ele>88.58</ele>
        <time>2016-07-30T07:27:54Z</time>
      </trkpt>
      <trkpt lat="48.90269" lon="2.06189">
        <ele>86.18</ele>
        <time>2016-07-30T07:28:05Z</time>
      </trkpt>
      <trkpt lat="48.90358" lon="2.06363">
        <ele>81.37</ele>
        <time>2016-07-30T07:28:22Z</time>
      </trkpt>
      <trkpt lat="48.90362" lon="2.0637">
        <ele>81.37</ele>
        <time>2016-07-30T07:28:23Z</time>
      </trkpt>
      <trkpt lat="48.90391" lon="2.06391">
        <ele>80.41</ele>
        <time>2016-07-30T07:28:28Z</time>
      </trkpt>
      <trkpt lat="48.90414" lon="2.06402">
        <ele>78.48</ele>
        <time>2016-07-30T07:28:33Z</time>
      </trkpt>
      <trkpt lat="48.90412" lon="2.06401">
        <ele>75.6</ele>
        <time>2016-07-30T07:28:46Z</time>
      </trkpt>
      <trkpt lat="48.90407" lon="2.06397">
        <ele>76.08</ele>
        <time>2016-07-30T07:28:58Z</time>
      </trkpt>
      <trkpt lat="48.90407" lon="2.06368">
        <ele>78.48</ele>
        <time>2016-07-30T07:29:13Z</time>
      </trkpt>
      <trkpt lat="48.90408" lon="2.06359">
        <ele>78.97</ele>
        <time>2016-07-30T07:29:29Z</time>
      </trkpt>
      <trkpt lat="48.90408" lon="2.06358">
        <ele>77.52</ele>
        <time>2016-07-30T07:29:57Z</time>
      </trkpt>
      <trkpt lat="48.90408" lon="2.06357">
        <ele>77.04</ele>
        <time>2016-07-30T07:30:20Z</time>
      </trkpt>
      <trkpt lat="48.90409" lon="2.06355">
        <ele>76.56</ele>
        <time>2016-07-30T07:30:51Z</time>
      </trkpt>
      <trkpt lat="48.90408" lon="2.06355">
        <ele>76.56</ele>
        <time>2016-07-30T07:31:09Z</time>
      </trkpt>
      <trkpt lat="48.90406" lon="2.06353">
        <ele>75.6</ele>
        <time>2016-07-30T07:31:50Z</time>
      </trkpt>
      <trkpt lat="48.90405" lon="2.06352">
        <ele>75.6</ele>
        <time>2016-07-30T07:32:14Z</time>
      </trkpt>
      <trkpt lat="48.90405" lon="2.0635">
        <ele>75.6</ele>
        <time>2016-07-30T07:32:44Z</time>
      </trkpt>
      <trkpt lat="48.90404" lon="2.06351">
        <ele>74.64</ele>
        <time>2016-07-30T07:33:19Z</time>
      </trkpt>
      <trkpt lat="48.90404" lon="2.06357">
        <ele>75.12</ele>
        <time>2016-07-30T07:33:34Z</time>
      </trkpt>
      <trkpt lat="48.90405" lon="2.0637">
        <ele>76.08</ele>
        <time>2016-07-30T07:33:45Z</time>
      </trkpt>
      <trkpt lat="48.90408" lon="2.06374">
        <ele>76.08</ele>
        <time>2016-07-30T07:33:49Z</time>
      </trkpt>
      <trkpt lat="48.90414" lon="2.06382">
        <ele>75.12</ele>
        <time>2016-07-30T07:34:04Z</time>
      </trkpt>
      <trkpt lat="48.90418" lon="2.06386">
        <ele>75.12</ele>
        <time>2016-07-30T07:34:23Z</time>
      </trkpt>
      <trkpt lat="48.90423" lon="2.06389">
        <ele>75.12</ele>
        <time>2016-07-30T07:34:35Z</time>
      </trkpt>
      <trkpt lat="48.90439" lon="2.06386">
        <ele>76.56</ele>
        <time>2016-07-30T07:34:49Z</time>
      </trkpt>
      <trkpt lat="48.90443" lon="2.06386">
        <ele>77.04</ele>
        <time>2016-07-30T07:34:52Z</time>
      </trkpt>
      <trkpt lat="48.9045" lon="2.06385">
        <ele>78</ele>
        <time>2016-07-30T07:34:58Z</time>
      </trkpt>
      <trkpt lat="48.90455" lon="2.06382">
        <ele>78</ele>
        <time>2016-07-30T07:35:02Z</time>
      </trkpt>
      <trkpt lat="48.90461" lon="2.06382">
        <ele>78</ele>
        <time>2016-07-30T07:35:07Z</time>
      </trkpt>
      <trkpt lat="48.90471" lon="2.06383">
        <ele>77.04</ele>
        <time>2016-07-30T07:35:14Z</time>
      </trkpt>
      <trkpt lat="48.90493" lon="2.06383">
        <ele>77.04</ele>
        <time>2016-07-30T07:35:33Z</time>
      </trkpt>
      <trkpt lat="48.90507" lon="2.06382">
        <ele>77.04</ele>
        <time>2016-07-30T07:35:46Z</time>
      </trkpt>
      <trkpt lat="48.90507" lon="2.06381">
        <ele>77.04</ele>
        <time>2016-07-30T07:35:48Z</time>
      </trkpt>
      <trkpt lat="48.90508" lon="2.06381">
        <ele>77.52</ele>
        <time>2016-07-30T07:35:50Z</time>
      </trkpt>
      <trkpt lat="48.90532" lon="2.06383">
        <ele>78.48</ele>
        <time>2016-07-30T07:36:10Z</time>
      </trkpt>
      <trkpt lat="48.90552" lon="2.06383">
        <ele>78.48</ele>
        <time>2016-07-30T07:36:27Z</time>
      </trkpt>
      <trkpt lat="48.90574" lon="2.06379">
        <ele>78.97</ele>
        <time>2016-07-30T07:36:46Z</time>
      </trkpt>
      <trkpt lat="48.90577" lon="2.06378">
        <ele>78.48</ele>
        <time>2016-07-30T07:36:50Z</time>
      </trkpt>
      <trkpt lat="48.90581" lon="2.06377">
        <ele>78</ele>
        <time>2016-07-30T07:36:54Z</time>
      </trkpt>
      <trkpt lat="48.90587" lon="2.0637">
        <ele>78</ele>
        <time>2016-07-30T07:36:59Z</time>
      </trkpt>
      <trkpt lat="48.90589" lon="2.06367">
        <ele>78</ele>
        <time>2016-07-30T07:37:01Z</time>
      </trkpt>
      <trkpt lat="48.90597" lon="2.0636">
        <ele>76.56</ele>
        <time>2016-07-30T07:37:16Z</time>
      </trkpt>
      <trkpt lat="48.90596" lon="2.06361">
        <ele>76.56</ele>
        <time>2016-07-30T07:37:17Z</time>
      </trkpt>
      <trkpt lat="48.90587" lon="2.06364">
        <ele>75.12</ele>
        <time>2016-07-30T07:37:27Z</time>
      </trkpt>
      <trkpt lat="48.90583" lon="2.06363">
        <ele>74.16</ele>
        <time>2016-07-30T07:37:30Z</time>
      </trkpt>
      <trkpt lat="48.90581" lon="2.06355">
        <ele>73.2</ele>
        <time>2016-07-30T07:37:36Z</time>
      </trkpt>
      <trkpt lat="48.90582" lon="2.0635">
        <ele>71.76</ele>
        <time>2016-07-30T07:37:43Z</time>
      </trkpt>
      <trkpt lat="48.9058" lon="2.06336">
        <ele>70.31</ele>
        <time>2016-07-30T07:37:59Z</time>
      </trkpt>
      <trkpt lat="48.90581" lon="2.06334">
        <ele>69.83</ele>
        <time>2016-07-30T07:38:20Z</time>
      </trkpt>
      <trkpt lat="48.90581" lon="2.06334">
        <ele>70.31</ele>
        <time>2016-07-30T07:38:21Z</time>
      </trkpt>
      <trkpt lat="48.90581" lon="2.06325">
        <ele>70.31</ele>
        <time>2016-07-30T07:38:35Z</time>
      </trkpt>
      <trkpt lat="48.90588" lon="2.06319">
        <ele>71.27</ele>
        <time>2016-07-30T07:38:51Z</time>
      </trkpt>
      <trkpt lat="48.90593" lon="2.06314">
        <ele>72.24</ele>
        <time>2016-07-30T07:39:03Z</time>
      </trkpt>
      <trkpt lat="48.90595" lon="2.06314">
        <ele>72.24</ele>
        <time>2016-07-30T07:39:22Z</time>
      </trkpt>
      <trkpt lat="48.90597" lon="2.06315">
        <ele>72.24</ele>
        <time>2016-07-30T07:39:39Z</time>
      </trkpt>
      <trkpt lat="48.90599" lon="2.06315">
        <ele>71.76</ele>
        <time>2016-07-30T07:40:06Z</time>
      </trkpt>
      <trkpt lat="48.90599" lon="2.06316">
        <ele>71.76</ele>
        <time>2016-07-30T07:40:25Z</time>
      </trkpt>
      <trkpt lat="48.90601" lon="2.06317">
        <ele>71.27</ele>
        <time>2016-07-30T07:40:43Z</time>
      </trkpt>
      <trkpt lat="48.90602" lon="2.06317">
        <ele>71.27</ele>
        <time>2016-07-30T07:41:08Z</time>
      </trkpt>
      <trkpt lat="48.90603" lon="2.06318">
        <ele>71.27</ele>
        <time>2016-07-30T07:41:36Z</time>
      </trkpt>
      <trkpt lat="48.90604" lon="2.06318">
        <ele>71.27</ele>
        <time>2016-07-30T07:42:00Z</time>
      </trkpt>
      <trkpt lat="48.90605" lon="2.06318">
        <ele>71.27</ele>
        <time>2016-07-30T07:42:31Z</time>
      </trkpt>
      <trkpt lat="48.90605" lon="2.06317">
        <ele>71.27</ele>
        <time>2016-07-30T07:43:00Z</time>
      </trkpt>
      <trkpt lat="48.90606" lon="2.06318">
        <ele>70.79</ele>
        <time>2016-07-30T07:43:20Z</time>
      </trkpt>
      <trkpt lat="48.90606" lon="2.06319">
        <ele>70.79</ele>
        <time>2016-07-30T07:43:55Z</time>
      </trkpt>
      <trkpt lat="48.90607" lon="2.0632">
        <ele>71.27</ele>
        <time>2016-07-30T07:44:28Z</time>
      </trkpt>
      <trkpt lat="48.9061" lon="2.06327">
        <ele>71.27</ele>
        <time>2016-07-30T07:44:46Z</time>
      </trkpt>
      <trkpt lat="48.90613" lon="2.06329">
        <ele>70.31</ele>
        <time>2016-07-30T07:45:04Z</time>
      </trkpt>
      <trkpt lat="48.90616" lon="2.06337">
        <ele>70.79</ele>
        <time>2016-07-30T07:45:22Z</time>
      </trkpt>
      <trkpt lat="48.90617" lon="2.06338">
        <ele>70.79</ele>
        <time>2016-07-30T07:45:43Z</time>
      </trkpt>
      <trkpt lat="48.9062" lon="2.06335">
        <ele>70.31</ele>
        <time>2016-07-30T07:45:49Z</time>
      </trkpt>
      <trkpt lat="48.90631" lon="2.06312">
        <ele>70.31</ele>
        <time>2016-07-30T07:46:07Z</time>
      </trkpt>
      <trkpt lat="48.90644" lon="2.06287">
        <ele>70.31</ele>
        <time>2016-07-30T07:46:26Z</time>
      </trkpt>
      <trkpt lat="48.90653" lon="2.06266">
        <ele>69.35</ele>
        <time>2016-07-30T07:46:44Z</time>
      </trkpt>
      <trkpt lat="48.90663" lon="2.06247">
        <ele>69.35</ele>
        <time>2016-07-30T07:46:59Z</time>
      </trkpt>
      <trkpt lat="48.90675" lon="2.06225">
        <ele>69.35</ele>
        <time>2016-07-30T07:47:15Z</time>
      </trkpt>
      <trkpt lat="48.90686" lon="2.06207">
        <ele>69.83</ele>
        <time>2016-07-30T07:47:29Z</time>
      </trkpt>
      <trkpt lat="48.90697" lon="2.06192">
        <ele>72.72</ele>
        <time>2016-07-30T07:47:44Z</time>
      </trkpt>
      <trkpt lat="48.90706" lon="2.06183">
        <ele>75.12</ele>
        <time>2016-07-30T07:47:58Z</time>
      </trkpt>
      <trkpt lat="48.90713" lon="2.06164">
        <ele>76.56</ele>
        <time>2016-07-30T07:48:13Z</time>
      </trkpt>
      <trkpt lat="48.90724" lon="2.06148">
        <ele>74.16</ele>
        <time>2016-07-30T07:48:29Z</time>
      </trkpt>
      <trkpt lat="48.90734" lon="2.06159">
        <ele>73.68</ele>
        <time>2016-07-30T07:48:43Z</time>
      </trkpt>
      <trkpt lat="48.9075" lon="2.06177">
        <ele>71.27</ele>
        <time>2016-07-30T07:49:00Z</time>
      </trkpt>
      <trkpt lat="48.90755" lon="2.06183">
        <ele>71.27</ele>
        <time>2016-07-30T07:49:13Z</time>
      </trkpt>
      <trkpt lat="48.90761" lon="2.06189">
        <ele>72.24</ele>
        <time>2016-07-30T07:49:26Z</time>
      </trkpt>
      <trkpt lat="48.90765" lon="2.06195">
        <ele>75.12</ele>
        <time>2016-07-30T07:49:40Z</time>
      </trkpt>
      <trkpt lat="48.9077" lon="2.062">
        <ele>77.52</ele>
        <time>2016-07-30T07:49:54Z</time>
      </trkpt>
      <trkpt lat="48.90769" lon="2.06201">
        <ele>77.04</ele>
        <time>2016-07-30T07:50:08Z</time>
      </trkpt>
      <trkpt lat="48.90767" lon="2.06201">
        <ele>75.6</ele>
        <time>2016-07-30T07:50:23Z</time>
      </trkpt>
      <trkpt lat="48.90767" lon="2.06202">
        <ele>76.56</ele>
        <time>2016-07-30T07:50:39Z</time>
      </trkpt>
      <trkpt lat="48.90767" lon="2.06203">
        <ele>77.52</ele>
        <time>2016-07-30T07:50:56Z</time>
      </trkpt>
      <trkpt lat="48.90769" lon="2.06202">
        <ele>78</ele>
        <time>2016-07-30T07:51:14Z</time>
      </trkpt>
      <trkpt lat="48.90768" lon="2.06201">
        <ele>77.52</ele>
        <time>2016-07-30T07:51:27Z</time>
      </trkpt>
      <trkpt lat="48.90766" lon="2.06202">
        <ele>78.48</ele>
        <time>2016-07-30T07:51:47Z</time>
      </trkpt>
      <trkpt lat="48.90766" lon="2.06202">
        <ele>78</ele>
        <time>2016-07-30T07:52:05Z</time>
      </trkpt>
      <trkpt lat="48.90766" lon="2.06202">
        <ele>78</ele>
        <time>2016-07-30T07:52:19Z</time>
      </trkpt>
      <trkpt lat="48.90766" lon="2.06201">
        <ele>77.52</ele>
        <time>2016-07-30T07:52:35Z</time>
      </trkpt>
      <trkpt lat="48.90766" lon="2.06201">
        <ele>78</ele>
        <time>2016-07-30T07:52:55Z</time>
      </trkpt>
      <trkpt lat="48.90765" lon="2.06201">
        <ele>78.97</ele>
        <time>2016-07-30T07:53:21Z</time>
      </trkpt>
      <trkpt lat="48.90765" lon="2.06203">
        <ele>80.41</ele>
        <time>2016-07-30T07:53:43Z</time>
      </trkpt>
      <trkpt lat="48.90765" lon="2.06202">
        <ele>80.41</ele>
        <time>2016-07-30T07:54:02Z</time>
      </trkpt>
      <trkpt lat="48.90765" lon="2.062">
        <ele>80.41</ele>
        <time>2016-07-30T07:54:21Z</time>
      </trkpt>
      <trkpt lat="48.90765" lon="2.06199">
        <ele>80.89</ele>
        <time>2016-07-30T07:54:43Z</time>
      </trkpt>
      <trkpt lat="48.90766" lon="2.062">
        <ele>81.37</ele>
        <time>2016-07-30T07:55:03Z</time>
      </trkpt>
      <trkpt lat="48.90767" lon="2.062">
        <ele>80.41</ele>
        <time>2016-07-30T07:55:21Z</time>
      </trkpt>
      <trkpt lat="48.90769" lon="2.06201">
        <ele>80.41</ele>
        <time>2016-07-30T07:55:39Z</time>
      </trkpt>
      <trkpt lat="48.90771" lon="2.06199">
        <ele>79.93</ele>
        <time>2016-07-30T07:55:51Z</time>
      </trkpt>
      <trkpt lat="48.90772" lon="2.06198">
        <ele>80.41</ele>
        <time>2016-07-30T07:56:09Z</time>
      </trkpt>
      <trkpt lat="48.9077" lon="2.06199">
        <ele>80.41</ele>
        <time>2016-07-30T07:56:22Z</time>
      </trkpt>
      <trkpt lat="48.90768" lon="2.06199">
        <ele>80.41</ele>
        <time>2016-07-30T07:56:41Z</time>
      </trkpt>
      <trkpt lat="48.90767" lon="2.06197">
        <ele>80.89</ele>
        <time>2016-07-30T07:57:04Z</time>
      </trkpt>
      <trkpt lat="48.90765" lon="2.06195">
        <ele>80.41</ele>
        <time>2016-07-30T07:57:30Z</time>
      </trkpt>
      <trkpt lat="48.90766" lon="2.06195">
        <ele>79.93</ele>
        <time>2016-07-30T07:57:50Z</time>
      </trkpt>
      <trkpt lat="48.90764" lon="2.06195">
        <ele>79.93</ele>
        <time>2016-07-30T07:58:18Z</time>
      </trkpt>
      <trkpt lat="48.90764" lon="2.06194">
        <ele>79.45</ele>
        <time>2016-07-30T07:58:34Z</time>
      </trkpt>
      <trkpt lat="48.90764" lon="2.06192">
        <ele>79.93</ele>
        <time>2016-07-30T07:58:51Z</time>
      </trkpt>
      <trkpt lat="48.90765" lon="2.06194">
        <ele>79.45</ele>
        <time>2016-07-30T07:59:18Z</time>
      </trkpt>
      <trkpt lat="48.90765" lon="2.06195">
        <ele>78.97</ele>
        <time>2016-07-30T07:59:46Z</time>
      </trkpt>
      <trkpt lat="48.90761" lon="2.06195">
        <ele>78.97</ele>
        <time>2016-07-30T08:00:02Z</time>
      </trkpt>
      <trkpt lat="48.90766" lon="2.06193">
        <ele>78</ele>
        <time>2016-07-30T08:00:25Z</time>
      </trkpt>
      <trkpt lat="48.90769" lon="2.06196">
        <ele>77.52</ele>
        <time>2016-07-30T08:00:49Z</time>
      </trkpt>
      <trkpt lat="48.9077" lon="2.06195">
        <ele>77.52</ele>
        <time>2016-07-30T08:01:12Z</time>
      </trkpt>
      <trkpt lat="48.90768" lon="2.06194">
        <ele>78.48</ele>
        <time>2016-07-30T08:01:38Z</time>
      </trkpt>
      <trkpt lat="48.90769" lon="2.06194">
        <ele>78.97</ele>
        <time>2016-07-30T08:02:12Z</time>
      </trkpt>
      <trkpt lat="48.90769" lon="2.06195">
        <ele>79.45</ele>
        <time>2016-07-30T08:02:45Z</time>
      </trkpt>
      <trkpt lat="48.90769" lon="2.06194">
        <ele>79.45</ele>
        <time>2016-07-30T08:03:17Z</time>
      </trkpt>
      <trkpt lat="48.9077" lon="2.06195">
        <ele>78.48</ele>
        <time>2016-07-30T08:03:41Z</time>
      </trkpt>
      <trkpt lat="48.90768" lon="2.06194">
        <ele>78</ele>
        <time>2016-07-30T08:03:55Z</time>
      </trkpt>
      <trkpt lat="48.90767" lon="2.06193">
        <ele>78</ele>
        <time>2016-07-30T08:04:10Z</time>
      </trkpt>
      <trkpt lat="48.90764" lon="2.06189">
        <ele>77.52</ele>
        <time>2016-07-30T08:04:24Z</time>
      </trkpt>
      <trkpt lat="48.90762" lon="2.06186">
        <ele>77.52</ele>
        <time>2016-07-30T08:04:34Z</time>
      </trkpt>
      <trkpt lat="48.90752" lon="2.06171">
        <ele>77.52</ele>
        <time>2016-07-30T08:04:47Z</time>
      </trkpt>
      <trkpt lat="48.90749" lon="2.06163">
        <ele>76.56</ele>
        <time>2016-07-30T08:04:54Z</time>
      </trkpt>
      <trkpt lat="48.90744" lon="2.06154">
        <ele>74.16</ele>
        <time>2016-07-30T08:05:12Z</time>
      </trkpt>
      <trkpt lat="48.90749" lon="2.06139">
        <ele>70.31</ele>
        <time>2016-07-30T08:05:29Z</time>
      </trkpt>
      <trkpt lat="48.90755" lon="2.06127">
        <ele>68.39</ele>
        <time>2016-07-30T08:05:46Z</time>
      </trkpt>
      <trkpt lat="48.90757" lon="2.06124">
        <ele>66.95</ele>
        <time>2016-07-30T08:05:49Z</time>
      </trkpt>
      <trkpt lat="48.9077" lon="2.06106">
        <ele>63.1</ele>
        <time>2016-07-30T08:06:06Z</time>
      </trkpt>
      <trkpt lat="48.90782" lon="2.06089">
        <ele>63.58</ele>
        <time>2016-07-30T08:06:22Z</time>
      </trkpt>
      <trkpt lat="48.90785" lon="2.06085">
        <ele>63.58</ele>
        <time>2016-07-30T08:06:26Z</time>
      </trkpt>
      <trkpt lat="48.90796" lon="2.06066">
        <ele>61.18</ele>
        <time>2016-07-30T08:06:43Z</time>
      </trkpt>
      <trkpt lat="48.90798" lon="2.06063">
        <ele>61.18</ele>
        <time>2016-07-30T08:06:45Z</time>
      </trkpt>
      <trkpt lat="48.908" lon="2.06061">
        <ele>61.66</ele>
        <time>2016-07-30T08:06:47Z</time>
      </trkpt>
      <trkpt lat="48.90813" lon="2.06037">
        <ele>63.1</ele>
        <time>2016-07-30T08:07:05Z</time>
      </trkpt>
      <trkpt lat="48.90821" lon="2.0602">
        <ele>63.1</ele>
        <time>2016-07-30T08:07:20Z</time>
      </trkpt>
      <trkpt lat="48.90834" lon="2.05999">
        <ele>63.58</ele>
        <time>2016-07-30T08:07:35Z</time>
      </trkpt>
      <trkpt lat="48.90843" lon="2.05982">
        <ele>66.47</ele>
        <time>2016-07-30T08:07:51Z</time>
      </trkpt>
      <trkpt lat="48.90849" lon="2.05971">
        <ele>64.07</ele>
        <time>2016-07-30T08:08:07Z</time>
      </trkpt>
      <trkpt lat="48.90851" lon="2.05973">
        <ele>65.51</ele>
        <time>2016-07-30T08:08:26Z</time>
      </trkpt>
      <trkpt lat="48.9086" lon="2.05974">
        <ele>69.35</ele>
        <time>2016-07-30T08:08:40Z</time>
      </trkpt>
      <trkpt lat="48.90862" lon="2.05975">
        <ele>70.31</ele>
        <time>2016-07-30T08:08:42Z</time>
      </trkpt>
      <trkpt lat="48.90873" lon="2.05983">
        <ele>73.2</ele>
        <time>2016-07-30T08:08:54Z</time>
      </trkpt>
      <trkpt lat="48.90881" lon="2.05989">
        <ele>73.68</ele>
        <time>2016-07-30T08:09:08Z</time>
      </trkpt>
      <trkpt lat="48.90881" lon="2.05991">
        <ele>74.16</ele>
        <time>2016-07-30T08:09:22Z</time>
      </trkpt>
      <trkpt lat="48.90881" lon="2.05993">
        <ele>74.16</ele>
        <time>2016-07-30T08:09:41Z</time>
      </trkpt>
      <trkpt lat="48.90882" lon="2.05992">
        <ele>73.2</ele>
        <time>2016-07-30T08:09:59Z</time>
      </trkpt>
      <trkpt lat="48.90883" lon="2.05992">
        <ele>73.2</ele>
        <time>2016-07-30T08:10:17Z</time>
      </trkpt>
      <trkpt lat="48.90883" lon="2.05992">
        <ele>73.68</ele>
        <time>2016-07-30T08:10:43Z</time>
      </trkpt>
      <trkpt lat="48.90884" lon="2.05991">
        <ele>74.64</ele>
        <time>2016-07-30T08:11:06Z</time>
      </trkpt>
      <trkpt lat="48.90884" lon="2.05992">
        <ele>75.12</ele>
        <time>2016-07-30T08:11:33Z</time>
      </trkpt>
      <trkpt lat="48.90886" lon="2.05992">
        <ele>76.08</ele>
        <time>2016-07-30T08:12:12Z</time>
      </trkpt>
      <trkpt lat="48.90885" lon="2.05992">
        <ele>75.6</ele>
        <time>2016-07-30T08:12:40Z</time>
      </trkpt>
      <trkpt lat="48.90886" lon="2.05992">
        <ele>75.6</ele>
        <time>2016-07-30T08:12:59Z</time>
      </trkpt>
      <trkpt lat="48.90883" lon="2.0599">
        <ele>75.12</ele>
        <time>2016-07-30T08:13:14Z</time>
      </trkpt>
      <trkpt lat="48.90876" lon="2.05978">
        <ele>74.64</ele>
        <time>2016-07-30T08:13:31Z</time>
      </trkpt>
      <trkpt lat="48.90871" lon="2.05961">
        <ele>71.76</ele>
        <time>2016-07-30T08:13:44Z</time>
      </trkpt>
      <trkpt lat="48.90872" lon="2.05946">
        <ele>73.2</ele>
        <time>2016-07-30T08:13:58Z</time>
      </trkpt>
      <trkpt lat="48.90881" lon="2.05931">
        <ele>74.16</ele>
        <time>2016-07-30T08:14:13Z</time>
      </trkpt>
      <trkpt lat="48.90886" lon="2.05914">
        <ele>76.56</ele>
        <time>2016-07-30T08:14:28Z</time>
      </trkpt>
      <trkpt lat="48.90895" lon="2.05898">
        <ele>78</ele>
        <time>2016-07-30T08:14:44Z</time>
      </trkpt>
      <trkpt lat="48.90907" lon="2.05877">
        <ele>77.52</ele>
        <time>2016-07-30T08:15:02Z</time>
      </trkpt>
      <trkpt lat="48.90911" lon="2.05866">
        <ele>76.56</ele>
        <time>2016-07-30T08:15:14Z</time>
      </trkpt>
      <trkpt lat="48.90913" lon="2.05863">
        <ele>75.6</ele>
        <time>2016-07-30T08:15:18Z</time>
      </trkpt>
      <trkpt lat="48.90919" lon="2.05857">
        <ele>73.2</ele>
        <time>2016-07-30T08:15:24Z</time>
      </trkpt>
      <trkpt lat="48.90928" lon="2.05847">
        <ele>68.39</ele>
        <time>2016-07-30T08:15:35Z</time>
      </trkpt>
      <trkpt lat="48.90941" lon="2.05832">
        <ele>64.07</ele>
        <time>2016-07-30T08:15:50Z</time>
      </trkpt>
      <trkpt lat="48.90952" lon="2.05814">
        <ele>61.66</ele>
        <time>2016-07-30T08:16:05Z</time>
      </trkpt>
      <trkpt lat="48.9096" lon="2.05799">
        <ele>61.66</ele>
        <time>2016-07-30T08:16:19Z</time>
      </trkpt>
      <trkpt lat="48.90953" lon="2.0578">
        <ele>60.7</ele>
        <time>2016-07-30T08:16:33Z</time>
      </trkpt>
      <trkpt lat="48.9094" lon="2.05756">
        <ele>62.14</ele>
        <time>2016-07-30T08:16:52Z</time>
      </trkpt>
      <trkpt lat="48.90947" lon="2.05729">
        <ele>68.39</ele>
        <time>2016-07-30T08:17:10Z</time>
      </trkpt>
      <trkpt lat="48.90946" lon="2.05714">
        <ele>72.24</ele>
        <time>2016-07-30T08:17:21Z</time>
      </trkpt>
      <trkpt lat="48.90946" lon="2.057">
        <ele>72.24</ele>
        <time>2016-07-30T08:17:27Z</time>
      </trkpt>
      <trkpt lat="48.90941" lon="2.05681">
        <ele>73.2</ele>
        <time>2016-07-30T08:17:41Z</time>
      </trkpt>
      <trkpt lat="48.9094" lon="2.05679">
        <ele>74.16</ele>
        <time>2016-07-30T08:17:56Z</time>
      </trkpt>
      <trkpt lat="48.9094" lon="2.05673">
        <ele>73.2</ele>
        <time>2016-07-30T08:18:07Z</time>
      </trkpt>
      <trkpt lat="48.9094" lon="2.05675">
        <ele>73.2</ele>
        <time>2016-07-30T08:18:19Z</time>
      </trkpt>
      <trkpt lat="48.90939" lon="2.05674">
        <ele>73.2</ele>
        <time>2016-07-30T08:18:32Z</time>
      </trkpt>
      <trkpt lat="48.9094" lon="2.05675">
        <ele>74.64</ele>
        <time>2016-07-30T08:18:46Z</time>
      </trkpt>
      <trkpt lat="48.90938" lon="2.05677">
        <ele>73.68</ele>
        <time>2016-07-30T08:18:57Z</time>
      </trkpt>
      <trkpt lat="48.90936" lon="2.05679">
        <ele>73.68</ele>
        <time>2016-07-30T08:19:15Z</time>
      </trkpt>
      <trkpt lat="48.90935" lon="2.05678">
        <ele>74.16</ele>
        <time>2016-07-30T08:19:37Z</time>
      </trkpt>
      <trkpt lat="48.90935" lon="2.05678">
        <ele>74.16</ele>
        <time>2016-07-30T08:19:38Z</time>
      </trkpt>
      <trkpt lat="48.90931" lon="2.0568">
        <ele>72.72</ele>
        <time>2016-07-30T08:19:43Z</time>
      </trkpt>
      <trkpt lat="48.90928" lon="2.05677">
        <ele>71.76</ele>
        <time>2016-07-30T08:19:57Z</time>
      </trkpt>
      <trkpt lat="48.9093" lon="2.05685">
        <ele>69.35</ele>
        <time>2016-07-30T08:20:20Z</time>
      </trkpt>
      <trkpt lat="48.9093" lon="2.05685">
        <ele>69.83</ele>
        <time>2016-07-30T08:20:52Z</time>
      </trkpt>
      <trkpt lat="48.9093" lon="2.0569">
        <ele>72.24</ele>
        <time>2016-07-30T08:21:29Z</time>
      </trkpt>
      <trkpt lat="48.9093" lon="2.05691">
        <ele>71.76</ele>
        <time>2016-07-30T08:21:42Z</time>
      </trkpt>
      <trkpt lat="48.90929" lon="2.05687">
        <ele>70.79</ele>
        <time>2016-07-30T08:21:56Z</time>
      </trkpt>
      <trkpt lat="48.9093" lon="2.05683">
        <ele>68.87</ele>
        <time>2016-07-30T08:22:17Z</time>
      </trkpt>
      <trkpt lat="48.9093" lon="2.05687">
        <ele>67.91</ele>
        <time>2016-07-30T08:22:48Z</time>
      </trkpt>
      <trkpt lat="48.90934" lon="2.05697">
        <ele>68.39</ele>
        <time>2016-07-30T08:23:02Z</time>
      </trkpt>
      <trkpt lat="48.90934" lon="2.05703">
        <ele>68.87</ele>
        <time>2016-07-30T08:23:14Z</time>
      </trkpt>
      <trkpt lat="48.90931" lon="2.05715">
        <ele>67.43</ele>
        <time>2016-07-30T08:23:28Z</time>
      </trkpt>
      <trkpt lat="48.90934" lon="2.05744">
        <ele>70.31</ele>
        <time>2016-07-30T08:23:42Z</time>
      </trkpt>
      <trkpt lat="48.90937" lon="2.05752">
        <ele>70.31</ele>
        <time>2016-07-30T08:23:49Z</time>
      </trkpt>
      <trkpt lat="48.90947" lon="2.05775">
        <ele>71.27</ele>
        <time>2016-07-30T08:24:05Z</time>
      </trkpt>
      <trkpt lat="48.90949" lon="2.05778">
        <ele>71.27</ele>
        <time>2016-07-30T08:24:08Z</time>
      </trkpt>
      <trkpt lat="48.90959" lon="2.05789">
        <ele>72.72</ele>
        <time>2016-07-30T08:24:23Z</time>
      </trkpt>
      <trkpt lat="48.90959" lon="2.0579">
        <ele>73.2</ele>
        <time>2016-07-30T08:24:46Z</time>
      </trkpt>
      <trkpt lat="48.90966" lon="2.05804">
        <ele>73.68</ele>
        <time>2016-07-30T08:24:58Z</time>
      </trkpt>
      <trkpt lat="48.90971" lon="2.05814">
        <ele>73.68</ele>
        <time>2016-07-30T08:25:09Z</time>
      </trkpt>
      <trkpt lat="48.90981" lon="2.05834">
        <ele>75.6</ele>
        <time>2016-07-30T08:25:25Z</time>
      </trkpt>
      <trkpt lat="48.90992" lon="2.05855">
        <ele>73.68</ele>
        <time>2016-07-30T08:25:41Z</time>
      </trkpt>
      <trkpt lat="48.91" lon="2.05873">
        <ele>73.68</ele>
        <time>2016-07-30T08:25:56Z</time>
      </trkpt>
      <trkpt lat="48.91009" lon="2.0589">
        <ele>73.2</ele>
        <time>2016-07-30T08:26:10Z</time>
      </trkpt>
      <trkpt lat="48.91017" lon="2.0591">
        <ele>71.27</ele>
        <time>2016-07-30T08:26:26Z</time>
      </trkpt>
      <trkpt lat="48.91026" lon="2.05931">
        <ele>71.27</ele>
        <time>2016-07-30T08:26:43Z</time>
      </trkpt>
      <trkpt lat="48.91034" lon="2.05946">
        <ele>70.79</ele>
        <time>2016-07-30T08:26:58Z</time>
      </trkpt>
      <trkpt lat="48.91045" lon="2.05969">
        <ele>71.76</ele>
        <time>2016-07-30T08:27:14Z</time>
      </trkpt>
      <trkpt lat="48.91046" lon="2.0597">
        <ele>72.24</ele>
        <time>2016-07-30T08:27:15Z</time>
      </trkpt>
      <trkpt lat="48.9105" lon="2.05979">
        <ele>72.24</ele>
        <time>2016-07-30T08:27:22Z</time>
      </trkpt>
      <trkpt lat="48.91055" lon="2.05996">
        <ele>73.2</ele>
        <time>2016-07-30T08:27:32Z</time>
      </trkpt>
      <trkpt lat="48.91062" lon="2.06013">
        <ele>70.31</ele>
        <time>2016-07-30T08:27:46Z</time>
      </trkpt>
      <trkpt lat="48.91067" lon="2.06021">
        <ele>69.83</ele>
        <time>2016-07-30T08:27:59Z</time>
      </trkpt>
      <trkpt lat="48.9107" lon="2.06039">
        <ele>69.83</ele>
        <time>2016-07-30T08:28:14Z</time>
      </trkpt>
      <trkpt lat="48.91071" lon="2.06042">
        <ele>69.83</ele>
        <time>2016-07-30T08:28:31Z</time>
      </trkpt>
      <trkpt lat="48.91071" lon="2.06045">
        <ele>72.24</ele>
        <time>2016-07-30T08:28:51Z</time>
      </trkpt>
      <trkpt lat="48.91072" lon="2.06049">
        <ele>72.24</ele>
        <time>2016-07-30T08:29:15Z</time>
      </trkpt>
      <trkpt lat="48.91072" lon="2.0605">
        <ele>71.76</ele>
        <time>2016-07-30T08:29:42Z</time>
      </trkpt>
      <trkpt lat="48.91071" lon="2.06054">
        <ele>73.2</ele>
        <time>2016-07-30T08:30:10Z</time>
      </trkpt>
      <trkpt lat="48.91071" lon="2.06055">
        <ele>74.64</ele>
        <time>2016-07-30T08:30:35Z</time>
      </trkpt>
      <trkpt lat="48.91071" lon="2.06056">
        <ele>74.64</ele>
        <time>2016-07-30T08:31:05Z</time>
      </trkpt>
      <trkpt lat="48.91072" lon="2.06058">
        <ele>74.16</ele>
        <time>2016-07-30T08:31:38Z</time>
      </trkpt>
      <trkpt lat="48.91072" lon="2.06057">
        <ele>75.6</ele>
        <time>2016-07-30T08:31:56Z</time>
      </trkpt>
      <trkpt lat="48.91078" lon="2.06064">
        <ele>74.64</ele>
        <time>2016-07-30T08:32:10Z</time>
      </trkpt>
      <trkpt lat="48.91085" lon="2.06076">
        <ele>76.08</ele>
        <time>2016-07-30T08:32:25Z</time>
      </trkpt>
      <trkpt lat="48.91093" lon="2.06087">
        <ele>76.56</ele>
        <time>2016-07-30T08:32:42Z</time>
      </trkpt>
      <trkpt lat="48.911" lon="2.06098">
        <ele>74.64</ele>
        <time>2016-07-30T08:32:59Z</time>
      </trkpt>
      <trkpt lat="48.91107" lon="2.06111">
        <ele>72.72</ele>
        <time>2016-07-30T08:33:11Z</time>
      </trkpt>
      <trkpt lat="48.91119" lon="2.06131">
        <ele>70.79</ele>
        <time>2016-07-30T08:33:26Z</time>
      </trkpt>
      <trkpt lat="48.91128" lon="2.06154">
        <ele>69.35</ele>
        <time>2016-07-30T08:33:41Z</time>
      </trkpt>
      <trkpt lat="48.91138" lon="2.0617">
        <ele>68.39</ele>
        <time>2016-07-30T08:33:57Z</time>
      </trkpt>
      <trkpt lat="48.91141" lon="2.06176">
        <ele>67.43</ele>
        <time>2016-07-30T08:34:03Z</time>
      </trkpt>
      <trkpt lat="48.91148" lon="2.06194">
        <ele>66.95</ele>
        <time>2016-07-30T08:34:17Z</time>
      </trkpt>
      <trkpt lat="48.91157" lon="2.06213">
        <ele>64.07</ele>
        <time>2016-07-30T08:34:32Z</time>
      </trkpt>
      <trkpt lat="48.91161" lon="2.06221">
        <ele>63.58</ele>
        <time>2016-07-30T08:34:49Z</time>
      </trkpt>
      <trkpt lat="48.91163" lon="2.06222">
        <ele>63.58</ele>
        <time>2016-07-30T08:35:04Z</time>
      </trkpt>
      <trkpt lat="48.91164" lon="2.06225">
        <ele>65.03</ele>
        <time>2016-07-30T08:35:31Z</time>
      </trkpt>
      <trkpt lat="48.91166" lon="2.06227">
        <ele>67.91</ele>
        <time>2016-07-30T08:36:00Z</time>
      </trkpt>
      <trkpt lat="48.91165" lon="2.06229">
        <ele>70.79</ele>
        <time>2016-07-30T08:36:27Z</time>
      </trkpt>
      <trkpt lat="48.91165" lon="2.0623">
        <ele>73.2</ele>
        <time>2016-07-30T08:36:56Z</time>
      </trkpt>
      <trkpt lat="48.91165" lon="2.06231">
        <ele>75.12</ele>
        <time>2016-07-30T08:37:21Z</time>
      </trkpt>
      <trkpt lat="48.91165" lon="2.06232">
        <ele>74.64</ele>
        <time>2016-07-30T08:37:42Z</time>
      </trkpt>
      <trkpt lat="48.91166" lon="2.06234">
        <ele>75.6</ele>
        <time>2016-07-30T08:38:12Z</time>
      </trkpt>
      <trkpt lat="48.91165" lon="2.06233">
        <ele>75.6</ele>
        <time>2016-07-30T08:38:31Z</time>
      </trkpt>
      <trkpt lat="48.91168" lon="2.06238">
        <ele>75.12</ele>
        <time>2016-07-30T08:38:43Z</time>
      </trkpt>
      <trkpt lat="48.91167" lon="2.0625">
        <ele>72.24</ele>
        <time>2016-07-30T08:38:54Z</time>
      </trkpt>
      <trkpt lat="48.91149" lon="2.06255">
        <ele>65.99</ele>
        <time>2016-07-30T08:39:14Z</time>
      </trkpt>
      <trkpt lat="48.91132" lon="2.06259">
        <ele>64.55</ele>
        <time>2016-07-30T08:39:29Z</time>
      </trkpt>
      <trkpt lat="48.91118" lon="2.06265">
        <ele>65.99</ele>
        <time>2016-07-30T08:39:43Z</time>
      </trkpt>
      <trkpt lat="48.91106" lon="2.06269">
        <ele>68.39</ele>
        <time>2016-07-30T08:39:59Z</time>
      </trkpt>
      <trkpt lat="48.91092" lon="2.06276">
        <ele>72.72</ele>
        <time>2016-07-30T08:40:14Z</time>
      </trkpt>
      <trkpt lat="48.91089" lon="2.06278">
        <ele>73.2</ele>
        <time>2016-07-30T08:40:16Z</time>
      </trkpt>
      <trkpt lat="48.91074" lon="2.06287">
        <ele>74.64</ele>
        <time>2016-07-30T08:40:32Z</time>
      </trkpt>
      <trkpt lat="48.9106" lon="2.06299">
        <ele>76.08</ele>
        <time>2016-07-30T08:40:49Z</time>
      </trkpt>
      <trkpt lat="48.91044" lon="2.06312">
        <ele>76.08</ele>
        <time>2016-07-30T08:41:04Z</time>
      </trkpt>
      <trkpt lat="48.91034" lon="2.06327">
        <ele>74.64</ele>
        <time>2016-07-30T08:41:17Z</time>
      </trkpt>
      <trkpt lat="48.91014" lon="2.06325">
        <ele>73.68</ele>
        <time>2016-07-30T08:41:34Z</time>
      </trkpt>
      <trkpt lat="48.91002" lon="2.06331">
        <ele>73.68</ele>
        <time>2016-07-30T08:41:46Z</time>
      </trkpt>
      <trkpt lat="48.91005" lon="2.06347">
        <ele>71.76</ele>
        <time>2016-07-30T08:42:02Z</time>
      </trkpt>
      <trkpt lat="48.91005" lon="2.06348">
        <ele>72.24</ele>
        <time>2016-07-30T08:42:15Z</time>
      </trkpt>
      <trkpt lat="48.91007" lon="2.06348">
        <ele>71.76</ele>
        <time>2016-07-30T08:42:28Z</time>
      </trkpt>
      <trkpt lat="48.91008" lon="2.06348">
        <ele>71.27</ele>
        <time>2016-07-30T08:42:41Z</time>
      </trkpt>
      <trkpt lat="48.91009" lon="2.06349">
        <ele>71.27</ele>
        <time>2016-07-30T08:43:00Z</time>
      </trkpt>
      <trkpt lat="48.91008" lon="2.06344">
        <ele>70.79</ele>
        <time>2016-07-30T08:43:06Z</time>
      </trkpt>
      <trkpt lat="48.91002" lon="2.06339">
        <ele>69.35</ele>
        <time>2016-07-30T08:43:20Z</time>
      </trkpt>
      <trkpt lat="48.90998" lon="2.06339">
        <ele>68.39</ele>
        <time>2016-07-30T08:43:26Z</time>
      </trkpt>
      <trkpt lat="48.90995" lon="2.06341">
        <ele>66.47</ele>
        <time>2016-07-30T08:43:40Z</time>
      </trkpt>
      <trkpt lat="48.90995" lon="2.06342">
        <ele>66.47</ele>
        <time>2016-07-30T08:43:45Z</time>
      </trkpt>
      <trkpt lat="48.90999" lon="2.06342">
        <ele>65.51</ele>
        <time>2016-07-30T08:43:51Z</time>
      </trkpt>
      <trkpt lat="48.90995" lon="2.06338">
        <ele>65.03</ele>
        <time>2016-07-30T08:43:55Z</time>
      </trkpt>
      <trkpt lat="48.90994" lon="2.06336">
        <ele>65.03</ele>
        <time>2016-07-30T08:43:57Z</time>
      </trkpt>
      <trkpt lat="48.9099" lon="2.06334">
        <ele>64.55</ele>
        <time>2016-07-30T08:44:08Z</time>
      </trkpt>
      <trkpt lat="48.90989" lon="2.06338">
        <ele>65.99</ele>
        <time>2016-07-30T08:44:22Z</time>
      </trkpt>
      <trkpt lat="48.9099" lon="2.06339">
        <ele>66.47</ele>
        <time>2016-07-30T08:44:28Z</time>
      </trkpt>
      <trkpt lat="48.9099" lon="2.06337">
        <ele>67.43</ele>
        <time>2016-07-30T08:44:39Z</time>
      </trkpt>
      <trkpt lat="48.90992" lon="2.06334">
        <ele>68.39</ele>
        <time>2016-07-30T08:44:57Z</time>
      </trkpt>
      <trkpt lat="48.90994" lon="2.06337">
        <ele>68.87</ele>
        <time>2016-07-30T08:45:01Z</time>
      </trkpt>
      <trkpt lat="48.91002" lon="2.0635">
        <ele>69.35</ele>
        <time>2016-07-30T08:45:15Z</time>
      </trkpt>
      <trkpt lat="48.91005" lon="2.06348">
        <ele>70.31</ele>
        <time>2016-07-30T08:45:28Z</time>
      </trkpt>
      <trkpt lat="48.91006" lon="2.06347">
        <ele>69.83</ele>
        <time>2016-07-30T08:45:40Z</time>
      </trkpt>
      <trkpt lat="48.91006" lon="2.06347">
        <ele>68.39</ele>
        <time>2016-07-30T08:45:58Z</time>
      </trkpt>
      <trkpt lat="48.91005" lon="2.06347">
        <ele>66.47</ele>
        <time>2016-07-30T08:46:14Z</time>
      </trkpt>
      <trkpt lat="48.91006" lon="2.06346">
        <ele>65.51</ele>
        <time>2016-07-30T08:46:35Z</time>
      </trkpt>
      <trkpt lat="48.91004" lon="2.06345">
        <ele>64.07</ele>
        <time>2016-07-30T08:46:47Z</time>
      </trkpt>
      <trkpt lat="48.91004" lon="2.06345">
        <ele>63.58</ele>
        <time>2016-07-30T08:46:56Z</time>
      </trkpt>
      <trkpt lat="48.90997" lon="2.06339">
        <ele>62.62</ele>
        <time>2016-07-30T08:47:04Z</time>
      </trkpt>
      <trkpt lat="48.90994" lon="2.0634">
        <ele>62.62</ele>
        <time>2016-07-30T08:47:16Z</time>
      </trkpt>
      <trkpt lat="48.90995" lon="2.06339">
        <ele>61.18</ele>
        <time>2016-07-30T08:47:33Z</time>
      </trkpt>
      <trkpt lat="48.90994" lon="2.06339">
        <ele>60.7</ele>
        <time>2016-07-30T08:47:48Z</time>
      </trkpt>
      <trkpt lat="48.90993" lon="2.0634">
        <ele>60.7</ele>
        <time>2016-07-30T08:48:04Z</time>
      </trkpt>
      <trkpt lat="48.90993" lon="2.06341">
        <ele>60.7</ele>
        <time>2016-07-30T08:48:20Z</time>
      </trkpt>
      <trkpt lat="48.90993" lon="2.06342">
        <ele>60.22</ele>
        <time>2016-07-30T08:48:36Z</time>
      </trkpt>
      <trkpt lat="48.90994" lon="2.06341">
        <ele>59.26</ele>
        <time>2016-07-30T08:48:46Z</time>
      </trkpt>
      <trkpt lat="48.90995" lon="2.0634">
        <ele>61.18</ele>
        <time>2016-07-30T08:48:58Z</time>
      </trkpt>
      <trkpt lat="48.90994" lon="2.06339">
        <ele>62.14</ele>
        <time>2016-07-30T08:49:09Z</time>
      </trkpt>
      <trkpt lat="48.90993" lon="2.06336">
        <ele>61.18</ele>
        <time>2016-07-30T08:49:24Z</time>
      </trkpt>
      <trkpt lat="48.90992" lon="2.06333">
        <ele>63.58</ele>
        <time>2016-07-30T08:49:42Z</time>
      </trkpt>
      <trkpt lat="48.90995" lon="2.06336">
        <ele>63.1</ele>
        <time>2016-07-30T08:49:48Z</time>
      </trkpt>
      <trkpt lat="48.91002" lon="2.06345">
        <ele>61.66</ele>
        <time>2016-07-30T08:50:04Z</time>
      </trkpt>
      <trkpt lat="48.91003" lon="2.06344">
        <ele>62.62</ele>
        <time>2016-07-30T08:50:26Z</time>
      </trkpt>
      <trkpt lat="48.91003" lon="2.06343">
        <ele>62.14</ele>
        <time>2016-07-30T08:50:35Z</time>
      </trkpt>
      <trkpt lat="48.91003" lon="2.0634">
        <ele>62.14</ele>
        <time>2016-07-30T08:50:37Z</time>
      </trkpt>
      <trkpt lat="48.91002" lon="2.06339">
        <ele>61.66</ele>
        <time>2016-07-30T08:50:39Z</time>
      </trkpt>
      <trkpt lat="48.90996" lon="2.06337">
        <ele>61.66</ele>
        <time>2016-07-30T08:50:52Z</time>
      </trkpt>
      <trkpt lat="48.90996" lon="2.06338">
        <ele>61.18</ele>
        <time>2016-07-30T08:51:05Z</time>
      </trkpt>
      <trkpt lat="48.90995" lon="2.06336">
        <ele>60.7</ele>
        <time>2016-07-30T08:51:17Z</time>
      </trkpt>
      <trkpt lat="48.90996" lon="2.06335">
        <ele>61.18</ele>
        <time>2016-07-30T08:51:36Z</time>
      </trkpt>
      <trkpt lat="48.90997" lon="2.06334">
        <ele>59.26</ele>
        <time>2016-07-30T08:51:57Z</time>
      </trkpt>
      <trkpt lat="48.90997" lon="2.06334">
        <ele>59.26</ele>
        <time>2016-07-30T08:52:13Z</time>
      </trkpt>
      <trkpt lat="48.90994" lon="2.06335">
        <ele>59.26</ele>
        <time>2016-07-30T08:52:31Z</time>
      </trkpt>
      <trkpt lat="48.90995" lon="2.06334">
        <ele>60.22</ele>
        <time>2016-07-30T08:52:43Z</time>
      </trkpt>
      <trkpt lat="48.90995" lon="2.06333">
        <ele>62.14</ele>
        <time>2016-07-30T08:53:03Z</time>
      </trkpt>
      <trkpt lat="48.90995" lon="2.06334">
        <ele>64.07</ele>
        <time>2016-07-30T08:53:25Z</time>
      </trkpt>
      <trkpt lat="48.90995" lon="2.06333">
        <ele>65.03</ele>
        <time>2016-07-30T08:53:49Z</time>
      </trkpt>
      <trkpt lat="48.90993" lon="2.06333">
        <ele>64.55</ele>
        <time>2016-07-30T08:54:06Z</time>
      </trkpt>
      <trkpt lat="48.90992" lon="2.06334">
        <ele>63.58</ele>
        <time>2016-07-30T08:54:24Z</time>
      </trkpt>
      <trkpt lat="48.90993" lon="2.06334">
        <ele>63.1</ele>
        <time>2016-07-30T08:54:42Z</time>
      </trkpt>
      <trkpt lat="48.90993" lon="2.06335">
        <ele>63.1</ele>
        <time>2016-07-30T08:54:45Z</time>
      </trkpt>
      <trkpt lat="48.90993" lon="2.06335">
        <ele>63.58</ele>
        <time>2016-07-30T08:54:57Z</time>
      </trkpt>
      <trkpt lat="48.90992" lon="2.06335">
        <ele>63.58</ele>
        <time>2016-07-30T08:55:13Z</time>
      </trkpt>
      <trkpt lat="48.90992" lon="2.06337">
        <ele>63.58</ele>
        <time>2016-07-30T08:55:32Z</time>
      </trkpt>
      <trkpt lat="48.90993" lon="2.06341">
        <ele>64.07</ele>
        <time>2016-07-30T08:55:52Z</time>
      </trkpt>
      <trkpt lat="48.90992" lon="2.06341">
        <ele>64.55</ele>
        <time>2016-07-30T08:56:23Z</time>
      </trkpt>
      <trkpt lat="48.90994" lon="2.06341">
        <ele>64.07</ele>
        <time>2016-07-30T08:56:36Z</time>
      </trkpt>
      <trkpt lat="48.90993" lon="2.06343">
        <ele>63.1</ele>
        <time>2016-07-30T08:56:49Z</time>
      </trkpt>
      <trkpt lat="48.90994" lon="2.06343">
        <ele>63.1</ele>
        <time>2016-07-30T08:57:06Z</time>
      </trkpt>
      <trkpt lat="48.90994" lon="2.06344">
        <ele>65.03</ele>
        <time>2016-07-30T08:57:27Z</time>
      </trkpt>
      <trkpt lat="48.90995" lon="2.06345">
        <ele>66.47</ele>
        <time>2016-07-30T08:57:42Z</time>
      </trkpt>
      <trkpt lat="48.90994" lon="2.06346">
        <ele>66.95</ele>
        <time>2016-07-30T08:58:04Z</time>
      </trkpt>
      <trkpt lat="48.90993" lon="2.06346">
        <ele>66.95</ele>
        <time>2016-07-30T08:58:25Z</time>
      </trkpt>
      <trkpt lat="48.90993" lon="2.06346">
        <ele>66.95</ele>
        <time>2016-07-30T08:58:45Z</time>
      </trkpt>
      <trkpt lat="48.90993" lon="2.06347">
        <ele>67.91</ele>
        <time>2016-07-30T08:59:06Z</time>
      </trkpt>
      <trkpt lat="48.90992" lon="2.06347">
        <ele>68.87</ele>
        <time>2016-07-30T08:59:25Z</time>
      </trkpt>
      <trkpt lat="48.90991" lon="2.06347">
        <ele>68.87</ele>
        <time>2016-07-30T08:59:39Z</time>
      </trkpt>
      <trkpt lat="48.90992" lon="2.06347">
        <ele>68.39</ele>
        <time>2016-07-30T08:59:56Z</time>
      </trkpt>
      <trkpt lat="48.90993" lon="2.06344">
        <ele>66.95</ele>
        <time>2016-07-30T09:00:15Z</time>
      </trkpt>
      <trkpt lat="48.90995" lon="2.06342">
        <ele>66.95</ele>
        <time>2016-07-30T09:00:17Z</time>
      </trkpt>
      <trkpt lat="48.90991" lon="2.0634">
        <ele>65.99</ele>
        <time>2016-07-30T09:00:29Z</time>
      </trkpt>
      <trkpt lat="48.90991" lon="2.06339">
        <ele>66.47</ele>
        <time>2016-07-30T09:00:43Z</time>
      </trkpt>
      <trkpt lat="48.90991" lon="2.06337">
        <ele>66.95</ele>
        <time>2016-07-30T09:00:58Z</time>
      </trkpt>
      <trkpt lat="48.90992" lon="2.06335">
        <ele>66.47</ele>
        <time>2016-07-30T09:01:14Z</time>
      </trkpt>
      <trkpt lat="48.90992" lon="2.06334">
        <ele>66.95</ele>
        <time>2016-07-30T09:01:31Z</time>
      </trkpt>
      <trkpt lat="48.90992" lon="2.06335">
        <ele>66.95</ele>
        <time>2016-07-30T09:01:45Z</time>
      </trkpt>
      <trkpt lat="48.90991" lon="2.06335">
        <ele>66.47</ele>
        <time>2016-07-30T09:02:00Z</time>
      </trkpt>
      <trkpt lat="48.9099" lon="2.06336">
        <ele>66.47</ele>
        <time>2016-07-30T09:02:19Z</time>
      </trkpt>
      <trkpt lat="48.90991" lon="2.06342">
        <ele>66.47</ele>
        <time>2016-07-30T09:02:33Z</time>
      </trkpt>
      <trkpt lat="48.90986" lon="2.06348">
        <ele>65.51</ele>
        <time>2016-07-30T09:02:47Z</time>
      </trkpt>
      <trkpt lat="48.90988" lon="2.06349">
        <ele>65.03</ele>
        <time>2016-07-30T09:03:02Z</time>
      </trkpt>
      <trkpt lat="48.90986" lon="2.06351">
        <ele>65.99</ele>
        <time>2016-07-30T09:03:16Z</time>
      </trkpt>
      <trkpt lat="48.90987" lon="2.06352">
        <ele>65.99</ele>
        <time>2016-07-30T09:03:19Z</time>
      </trkpt>
      <trkpt lat="48.90997" lon="2.06356">
        <ele>65.99</ele>
        <time>2016-07-30T09:03:31Z</time>
      </trkpt>
      <trkpt lat="48.91001" lon="2.06345">
        <ele>63.58</ele>
        <time>2016-07-30T09:03:43Z</time>
      </trkpt>
      <trkpt lat="48.91" lon="2.06344">
        <ele>59.74</ele>
        <time>2016-07-30T09:04:04Z</time>
      </trkpt>
      <trkpt lat="48.91001" lon="2.06346">
        <ele>59.26</ele>
        <time>2016-07-30T09:04:25Z</time>
      </trkpt>
      <trkpt lat="48.91006" lon="2.06345">
        <ele>56.86</ele>
        <time>2016-07-30T09:04:53Z</time>
      </trkpt>
      <trkpt lat="48.91007" lon="2.06344">
        <ele>56.86</ele>
        <time>2016-07-30T09:05:14Z</time>
      </trkpt>
      <trkpt lat="48.91007" lon="2.06344">
        <ele>56.37</ele>
        <time>2016-07-30T09:05:53Z</time>
      </trkpt>
      <trkpt lat="48.91005" lon="2.06343">
        <ele>56.37</ele>
        <time>2016-07-30T09:05:55Z</time>
      </trkpt>
      <trkpt lat="48.90995" lon="2.06339">
        <ele>58.3</ele>
        <time>2016-07-30T09:06:09Z</time>
      </trkpt>
      <trkpt lat="48.90994" lon="2.06341">
        <ele>58.78</ele>
        <time>2016-07-30T09:06:24Z</time>
      </trkpt>
      <trkpt lat="48.90992" lon="2.06342">
        <ele>59.74</ele>
        <time>2016-07-30T09:06:43Z</time>
      </trkpt>
      <trkpt lat="48.9099" lon="2.06343">
        <ele>61.18</ele>
        <time>2016-07-30T09:07:01Z</time>
      </trkpt>
      <trkpt lat="48.90989" lon="2.06344">
        <ele>62.14</ele>
        <time>2016-07-30T09:07:17Z</time>
      </trkpt>
      <trkpt lat="48.90988" lon="2.06345">
        <ele>66.47</ele>
        <time>2016-07-30T09:07:35Z</time>
      </trkpt>
      <trkpt lat="48.90987" lon="2.06345">
        <ele>66.95</ele>
        <time>2016-07-30T09:07:48Z</time>
      </trkpt>
      <trkpt lat="48.90988" lon="2.06345">
        <ele>67.43</ele>
        <time>2016-07-30T09:08:07Z</time>
      </trkpt>
      <trkpt lat="48.90988" lon="2.06346">
        <ele>66.95</ele>
        <time>2016-07-30T09:08:21Z</time>
      </trkpt>
      <trkpt lat="48.90989" lon="2.06344">
        <ele>66.95</ele>
        <time>2016-07-30T09:08:39Z</time>
      </trkpt>
      <trkpt lat="48.90991" lon="2.06343">
        <ele>66.47</ele>
        <time>2016-07-30T09:08:50Z</time>
      </trkpt>
      <trkpt lat="48.90992" lon="2.06343">
        <ele>67.91</ele>
        <time>2016-07-30T09:09:06Z</time>
      </trkpt>
      <trkpt lat="48.90993" lon="2.06341">
        <ele>67.91</ele>
        <time>2016-07-30T09:09:19Z</time>
      </trkpt>
      <trkpt lat="48.90996" lon="2.06334">
        <ele>66.95</ele>
        <time>2016-07-30T09:09:31Z</time>
      </trkpt>
      <trkpt lat="48.90996" lon="2.06333">
        <ele>66.47</ele>
        <time>2016-07-30T09:09:48Z</time>
      </trkpt>
      <trkpt lat="48.90995" lon="2.06333">
        <ele>65.99</ele>
        <time>2016-07-30T09:10:02Z</time>
      </trkpt>
      <trkpt lat="48.90995" lon="2.06333">
        <ele>65.99</ele>
        <time>2016-07-30T09:10:03Z</time>
      </trkpt>
      <trkpt lat="48.90997" lon="2.06332">
        <ele>66.47</ele>
        <time>2016-07-30T09:10:14Z</time>
      </trkpt>
      <trkpt lat="48.90998" lon="2.06332">
        <ele>65.99</ele>
        <time>2016-07-30T09:10:28Z</time>
      </trkpt>
      <trkpt lat="48.90997" lon="2.06332">
        <ele>65.99</ele>
        <time>2016-07-30T09:10:33Z</time>
      </trkpt>
      <trkpt lat="48.91002" lon="2.06339">
        <ele>65.99</ele>
        <time>2016-07-30T09:10:46Z</time>
      </trkpt>
      <trkpt lat="48.91003" lon="2.06342">
        <ele>66.47</ele>
        <time>2016-07-30T09:11:20Z</time>
      </trkpt>
      <trkpt lat="48.91004" lon="2.06343">
        <ele>66.95</ele>
        <time>2016-07-30T09:11:49Z</time>
      </trkpt>
      <trkpt lat="48.91005" lon="2.06344">
        <ele>66.47</ele>
        <time>2016-07-30T09:12:16Z</time>
      </trkpt>
      <trkpt lat="48.91005" lon="2.06347">
        <ele>65.03</ele>
        <time>2016-07-30T09:12:29Z</time>
      </trkpt>
      <trkpt lat="48.91005" lon="2.06346">
        <ele>65.03</ele>
        <time>2016-07-30T09:12:30Z</time>
      </trkpt>
      <trkpt lat="48.90998" lon="2.06337">
        <ele>62.62</ele>
        <time>2016-07-30T09:12:45Z</time>
      </trkpt>
      <trkpt lat="48.90998" lon="2.06333">
        <ele>64.55</ele>
        <time>2016-07-30T09:12:58Z</time>
      </trkpt>
      <trkpt lat="48.90996" lon="2.06333">
        <ele>67.91</ele>
        <time>2016-07-30T09:13:21Z</time>
      </trkpt>
      <trkpt lat="48.90993" lon="2.06332">
        <ele>67.91</ele>
        <time>2016-07-30T09:13:40Z</time>
      </trkpt>
      <trkpt lat="48.90993" lon="2.06336">
        <ele>67.91</ele>
        <time>2016-07-30T09:13:55Z</time>
      </trkpt>
      <trkpt lat="48.90992" lon="2.06338">
        <ele>68.39</ele>
        <time>2016-07-30T09:14:22Z</time>
      </trkpt>
      <trkpt lat="48.90992" lon="2.06338">
        <ele>68.39</ele>
        <time>2016-07-30T09:14:45Z</time>
      </trkpt>
      <trkpt lat="48.90992" lon="2.06335">
        <ele>67.91</ele>
        <time>2016-07-30T09:15:01Z</time>
      </trkpt>
      <trkpt lat="48.90993" lon="2.06333">
        <ele>68.39</ele>
        <time>2016-07-30T09:15:12Z</time>
      </trkpt>
      <trkpt lat="48.90996" lon="2.06339">
        <ele>67.91</ele>
        <time>2016-07-30T09:15:27Z</time>
      </trkpt>
      <trkpt lat="48.91001" lon="2.06344">
        <ele>68.39</ele>
        <time>2016-07-30T09:15:43Z</time>
      </trkpt>
      <trkpt lat="48.91001" lon="2.06343">
        <ele>65.51</ele>
        <time>2016-07-30T09:16:22Z</time>
      </trkpt>
      <trkpt lat="48.91001" lon="2.06341">
        <ele>65.51</ele>
        <time>2016-07-30T09:16:57Z</time>
      </trkpt>
      <trkpt lat="48.91" lon="2.06339">
        <ele>65.51</ele>
        <time>2016-07-30T09:17:29Z</time>
      </trkpt>
      <trkpt lat="48.90999" lon="2.0634">
        <ele>64.55</ele>
        <time>2016-07-30T09:17:43Z</time>
      </trkpt>
      <trkpt lat="48.90998" lon="2.0634">
        <ele>63.58</ele>
        <time>2016-07-30T09:17:58Z</time>
      </trkpt>
      <trkpt lat="48.90997" lon="2.06341">
        <ele>63.58</ele>
        <time>2016-07-30T09:18:02Z</time>
      </trkpt>
      <trkpt lat="48.90989" lon="2.06374">
        <ele>68.39</ele>
        <time>2016-07-30T09:18:34Z</time>
      </trkpt>
      <trkpt lat="48.90984" lon="2.06395">
        <ele>70.79</ele>
        <time>2016-07-30T09:18:50Z</time>
      </trkpt>
      <trkpt lat="48.9098" lon="2.06405">
        <ele>71.76</ele>
        <time>2016-07-30T09:19:07Z</time>
      </trkpt>
      <trkpt lat="48.90975" lon="2.06414">
        <ele>74.16</ele>
        <time>2016-07-30T09:19:22Z</time>
      </trkpt>
      <trkpt lat="48.90962" lon="2.06436">
        <ele>72.72</ele>
        <time>2016-07-30T09:19:37Z</time>
      </trkpt>
      <trkpt lat="48.90946" lon="2.06453">
        <ele>72.24</ele>
        <time>2016-07-30T09:19:52Z</time>
      </trkpt>
      <trkpt lat="48.9093" lon="2.06469">
        <ele>73.2</ele>
        <time>2016-07-30T09:20:08Z</time>
      </trkpt>
      <trkpt lat="48.9092" lon="2.06485">
        <ele>73.2</ele>
        <time>2016-07-30T09:20:26Z</time>
      </trkpt>
      <trkpt lat="48.90908" lon="2.06501">
        <ele>79.45</ele>
        <time>2016-07-30T09:20:43Z</time>
      </trkpt>
      <trkpt lat="48.90903" lon="2.06517">
        <ele>81.37</ele>
        <time>2016-07-30T09:20:56Z</time>
      </trkpt>
      <trkpt lat="48.90894" lon="2.06544">
        <ele>83.29</ele>
        <time>2016-07-30T09:21:12Z</time>
      </trkpt>
      <trkpt lat="48.90889" lon="2.06556">
        <ele>80.89</ele>
        <time>2016-07-30T09:21:26Z</time>
      </trkpt>
      <trkpt lat="48.9089" lon="2.06556">
        <ele>80.89</ele>
        <time>2016-07-30T09:21:29Z</time>
      </trkpt>
      <trkpt lat="48.90892" lon="2.06556">
        <ele>82.81</ele>
        <time>2016-07-30T09:21:44Z</time>
      </trkpt>
      <trkpt lat="48.909" lon="2.06561">
        <ele>82.33</ele>
        <time>2016-07-30T09:21:57Z</time>
      </trkpt>
      <trkpt lat="48.90916" lon="2.06569">
        <ele>79.45</ele>
        <time>2016-07-30T09:22:12Z</time>
      </trkpt>
      <trkpt lat="48.90919" lon="2.06569">
        <ele>78.97</ele>
        <time>2016-07-30T09:22:24Z</time>
      </trkpt>
      <trkpt lat="48.9092" lon="2.06577">
        <ele>78</ele>
        <time>2016-07-30T09:22:36Z</time>
      </trkpt>
      <trkpt lat="48.90922" lon="2.06578">
        <ele>79.45</ele>
        <time>2016-07-30T09:22:51Z</time>
      </trkpt>
      <trkpt lat="48.90923" lon="2.06579">
        <ele>79.93</ele>
        <time>2016-07-30T09:23:06Z</time>
      </trkpt>
      <trkpt lat="48.90922" lon="2.0658">
        <ele>79.45</ele>
        <time>2016-07-30T09:23:28Z</time>
      </trkpt>
      <trkpt lat="48.90924" lon="2.06578">
        <ele>78</ele>
        <time>2016-07-30T09:23:49Z</time>
      </trkpt>
      <trkpt lat="48.90924" lon="2.06578">
        <ele>78.97</ele>
        <time>2016-07-30T09:24:03Z</time>
      </trkpt>
      <trkpt lat="48.90921" lon="2.06572">
        <ele>79.45</ele>
        <time>2016-07-30T09:24:14Z</time>
      </trkpt>
      <trkpt lat="48.9092" lon="2.06573">
        <ele>78.97</ele>
        <time>2016-07-30T09:24:27Z</time>
      </trkpt>
      <trkpt lat="48.90919" lon="2.06576">
        <ele>77.52</ele>
        <time>2016-07-30T09:24:39Z</time>
      </trkpt>
      <trkpt lat="48.90914" lon="2.06577">
        <ele>75.6</ele>
        <time>2016-07-30T09:25:01Z</time>
      </trkpt>
      <trkpt lat="48.90913" lon="2.06572">
        <ele>69.35</ele>
        <time>2016-07-30T09:25:24Z</time>
      </trkpt>
      <trkpt lat="48.90915" lon="2.06575">
        <ele>68.39</ele>
        <time>2016-07-30T09:25:33Z</time>
      </trkpt>
      <trkpt lat="48.90918" lon="2.06578">
        <ele>68.39</ele>
        <time>2016-07-30T09:25:45Z</time>
      </trkpt>
      <trkpt lat="48.90921" lon="2.06577">
        <ele>67.91</ele>
        <time>2016-07-30T09:26:08Z</time>
      </trkpt>
      <trkpt lat="48.90921" lon="2.06578">
        <ele>68.87</ele>
        <time>2016-07-30T09:26:38Z</time>
      </trkpt>
      <trkpt lat="48.90921" lon="2.06579">
        <ele>69.35</ele>
        <time>2016-07-30T09:27:05Z</time>
      </trkpt>
      <trkpt lat="48.90921" lon="2.0658">
        <ele>69.35</ele>
        <time>2016-07-30T09:27:30Z</time>
      </trkpt>
      <trkpt lat="48.90922" lon="2.06582">
        <ele>69.83</ele>
        <time>2016-07-30T09:27:55Z</time>
      </trkpt>
      <trkpt lat="48.90922" lon="2.06582">
        <ele>69.83</ele>
        <time>2016-07-30T09:28:12Z</time>
      </trkpt>
      <trkpt lat="48.90922" lon="2.06582">
        <ele>70.31</ele>
        <time>2016-07-30T09:28:35Z</time>
      </trkpt>
      <trkpt lat="48.90923" lon="2.06582">
        <ele>72.24</ele>
        <time>2016-07-30T09:28:56Z</time>
      </trkpt>
      <trkpt lat="48.90923" lon="2.06579">
        <ele>72.72</ele>
        <time>2016-07-30T09:29:13Z</time>
      </trkpt>
      <trkpt lat="48.90924" lon="2.0658">
        <ele>72.72</ele>
        <time>2016-07-30T09:29:18Z</time>
      </trkpt>
      <trkpt lat="48.90923" lon="2.0659">
        <ele>74.16</ele>
        <time>2016-07-30T09:29:33Z</time>
      </trkpt>
      <trkpt lat="48.90916" lon="2.06603">
        <ele>73.68</ele>
        <time>2016-07-30T09:29:50Z</time>
      </trkpt>
      <trkpt lat="48.90907" lon="2.06619">
        <ele>73.2</ele>
        <time>2016-07-30T09:30:06Z</time>
      </trkpt>
      <trkpt lat="48.90902" lon="2.06631">
        <ele>73.68</ele>
        <time>2016-07-30T09:30:15Z</time>
      </trkpt>
      <trkpt lat="48.90894" lon="2.06656">
        <ele>72.72</ele>
        <time>2016-07-30T09:30:32Z</time>
      </trkpt>
      <trkpt lat="48.90887" lon="2.06679">
        <ele>74.16</ele>
        <time>2016-07-30T09:30:49Z</time>
      </trkpt>
      <trkpt lat="48.90878" lon="2.067">
        <ele>74.16</ele>
        <time>2016-07-30T09:31:06Z</time>
      </trkpt>
      <trkpt lat="48.90876" lon="2.06727">
        <ele>74.64</ele>
        <time>2016-07-30T09:31:20Z</time>
      </trkpt>
      <trkpt lat="48.90874" lon="2.06746">
        <ele>78.48</ele>
        <time>2016-07-30T09:31:34Z</time>
      </trkpt>
      <trkpt lat="48.90867" lon="2.06762">
        <ele>81.37</ele>
        <time>2016-07-30T09:31:49Z</time>
      </trkpt>
      <trkpt lat="48.90861" lon="2.06781">
        <ele>82.81</ele>
        <time>2016-07-30T09:32:04Z</time>
      </trkpt>
      <trkpt lat="48.90852" lon="2.06799">
        <ele>82.81</ele>
        <time>2016-07-30T09:32:16Z</time>
      </trkpt>
      <trkpt lat="48.9085" lon="2.06824">
        <ele>83.29</ele>
        <time>2016-07-30T09:32:34Z</time>
      </trkpt>
      <trkpt lat="48.90852" lon="2.06825">
        <ele>83.77</ele>
        <time>2016-07-30T09:32:44Z</time>
      </trkpt>
      <trkpt lat="48.90853" lon="2.06829">
        <ele>82.81</ele>
        <time>2016-07-30T09:33:00Z</time>
      </trkpt>
      <trkpt lat="48.90853" lon="2.06831">
        <ele>82.33</ele>
        <time>2016-07-30T09:33:15Z</time>
      </trkpt>
      <trkpt lat="48.90854" lon="2.06831">
        <ele>81.37</ele>
        <time>2016-07-30T09:33:28Z</time>
      </trkpt>
      <trkpt lat="48.90853" lon="2.06835">
        <ele>80.89</ele>
        <time>2016-07-30T09:33:43Z</time>
      </trkpt>
      <trkpt lat="48.90857" lon="2.06848">
        <ele>81.37</ele>
        <time>2016-07-30T09:33:55Z</time>
      </trkpt>
      <trkpt lat="48.90862" lon="2.06857">
        <ele>79.45</ele>
        <time>2016-07-30T09:34:10Z</time>
      </trkpt>
      <trkpt lat="48.90863" lon="2.0686">
        <ele>79.45</ele>
        <time>2016-07-30T09:34:34Z</time>
      </trkpt>
      <trkpt lat="48.90861" lon="2.06861">
        <ele>80.41</ele>
        <time>2016-07-30T09:34:59Z</time>
      </trkpt>
      <trkpt lat="48.90858" lon="2.0686">
        <ele>79.45</ele>
        <time>2016-07-30T09:35:25Z</time>
      </trkpt>
      <trkpt lat="48.90858" lon="2.06858">
        <ele>79.93</ele>
        <time>2016-07-30T09:35:56Z</time>
      </trkpt>
      <trkpt lat="48.90856" lon="2.06858">
        <ele>81.37</ele>
        <time>2016-07-30T09:36:21Z</time>
      </trkpt>
      <trkpt lat="48.90856" lon="2.06858">
        <ele>82.33</ele>
        <time>2016-07-30T09:36:41Z</time>
      </trkpt>
      <trkpt lat="48.90855" lon="2.06859">
        <ele>81.37</ele>
        <time>2016-07-30T09:37:09Z</time>
      </trkpt>
      <trkpt lat="48.90853" lon="2.06858">
        <ele>81.85</ele>
        <time>2016-07-30T09:37:45Z</time>
      </trkpt>
      <trkpt lat="48.90853" lon="2.06859">
        <ele>81.37</ele>
        <time>2016-07-30T09:38:02Z</time>
      </trkpt>
      <trkpt lat="48.90855" lon="2.0686">
        <ele>80.41</ele>
        <time>2016-07-30T09:38:35Z</time>
      </trkpt>
      <trkpt lat="48.90855" lon="2.0686">
        <ele>79.93</ele>
        <time>2016-07-30T09:38:55Z</time>
      </trkpt>
      <trkpt lat="48.90856" lon="2.0686">
        <ele>78.48</ele>
        <time>2016-07-30T09:39:13Z</time>
      </trkpt>
      <trkpt lat="48.90857" lon="2.0686">
        <ele>77.04</ele>
        <time>2016-07-30T09:39:36Z</time>
      </trkpt>
      <trkpt lat="48.90849" lon="2.06861">
        <ele>75.12</ele>
        <time>2016-07-30T09:39:52Z</time>
      </trkpt>
      <trkpt lat="48.90846" lon="2.06859">
        <ele>73.68</ele>
        <time>2016-07-30T09:40:05Z</time>
      </trkpt>
      <trkpt lat="48.90839" lon="2.06879">
        <ele>76.08</ele>
        <time>2016-07-30T09:40:19Z</time>
      </trkpt>
      <trkpt lat="48.90827" lon="2.06912">
        <ele>78.48</ele>
        <time>2016-07-30T09:40:38Z</time>
      </trkpt>
      <trkpt lat="48.90816" lon="2.06933">
        <ele>78.48</ele>
        <time>2016-07-30T09:40:53Z</time>
      </trkpt>
      <trkpt lat="48.90804" lon="2.06948">
        <ele>84.25</ele>
        <time>2016-07-30T09:41:08Z</time>
      </trkpt>
      <trkpt lat="48.90796" lon="2.06975">
        <ele>89.06</ele>
        <time>2016-07-30T09:41:24Z</time>
      </trkpt>
      <trkpt lat="48.90788" lon="2.06999">
        <ele>88.1</ele>
        <time>2016-07-30T09:41:39Z</time>
      </trkpt>
      <trkpt lat="48.90782" lon="2.07018">
        <ele>86.66</ele>
        <time>2016-07-30T09:41:54Z</time>
      </trkpt>
      <trkpt lat="48.9078" lon="2.07023">
        <ele>87.14</ele>
        <time>2016-07-30T09:41:58Z</time>
      </trkpt>
      <trkpt lat="48.90778" lon="2.07032">
        <ele>87.62</ele>
        <time>2016-07-30T09:42:05Z</time>
      </trkpt>
      <trkpt lat="48.90772" lon="2.07047">
        <ele>88.58</ele>
        <time>2016-07-30T09:42:17Z</time>
      </trkpt>
      <trkpt lat="48.90768" lon="2.07061">
        <ele>88.58</ele>
        <time>2016-07-30T09:42:33Z</time>
      </trkpt>
      <trkpt lat="48.90766" lon="2.0707">
        <ele>88.58</ele>
        <time>2016-07-30T09:42:49Z</time>
      </trkpt>
      <trkpt lat="48.90761" lon="2.07102">
        <ele>86.66</ele>
        <time>2016-07-30T09:43:05Z</time>
      </trkpt>
      <trkpt lat="48.9076" lon="2.07127">
        <ele>89.06</ele>
        <time>2016-07-30T09:43:21Z</time>
      </trkpt>
      <trkpt lat="48.90756" lon="2.07143">
        <ele>89.54</ele>
        <time>2016-07-30T09:43:35Z</time>
      </trkpt>
      <trkpt lat="48.90752" lon="2.07147">
        <ele>89.06</ele>
        <time>2016-07-30T09:43:48Z</time>
      </trkpt>
      <trkpt lat="48.90741" lon="2.07149">
        <ele>86.18</ele>
        <time>2016-07-30T09:44:00Z</time>
      </trkpt>
      <trkpt lat="48.90732" lon="2.07142">
        <ele>85.69</ele>
        <time>2016-07-30T09:44:14Z</time>
      </trkpt>
      <trkpt lat="48.90728" lon="2.07139">
        <ele>84.73</ele>
        <time>2016-07-30T09:44:28Z</time>
      </trkpt>
      <trkpt lat="48.90725" lon="2.07137">
        <ele>82.81</ele>
        <time>2016-07-30T09:44:48Z</time>
      </trkpt>
      <trkpt lat="48.90723" lon="2.07138">
        <ele>82.81</ele>
        <time>2016-07-30T09:45:06Z</time>
      </trkpt>
      <trkpt lat="48.90721" lon="2.07142">
        <ele>81.37</ele>
        <time>2016-07-30T09:45:22Z</time>
      </trkpt>
      <trkpt lat="48.9072" lon="2.07143">
        <ele>83.29</ele>
        <time>2016-07-30T09:45:46Z</time>
      </trkpt>
      <trkpt lat="48.90719" lon="2.07143">
        <ele>82.81</ele>
        <time>2016-07-30T09:46:01Z</time>
      </trkpt>
      <trkpt lat="48.90717" lon="2.07141">
        <ele>81.37</ele>
        <time>2016-07-30T09:46:28Z</time>
      </trkpt>
      <trkpt lat="48.90715" lon="2.07141">
        <ele>80.89</ele>
        <time>2016-07-30T09:47:01Z</time>
      </trkpt>
      <trkpt lat="48.90714" lon="2.07142">
        <ele>82.33</ele>
        <time>2016-07-30T09:47:31Z</time>
      </trkpt>
      <trkpt lat="48.90712" lon="2.07143">
        <ele>82.81</ele>
        <time>2016-07-30T09:47:58Z</time>
      </trkpt>
      <trkpt lat="48.90713" lon="2.07143">
        <ele>83.29</ele>
        <time>2016-07-30T09:48:17Z</time>
      </trkpt>
      <trkpt lat="48.90714" lon="2.07144">
        <ele>81.37</ele>
        <time>2016-07-30T09:48:31Z</time>
      </trkpt>
      <trkpt lat="48.90715" lon="2.07143">
        <ele>81.85</ele>
        <time>2016-07-30T09:48:47Z</time>
      </trkpt>
      <trkpt lat="48.90715" lon="2.07143">
        <ele>81.85</ele>
        <time>2016-07-30T09:49:07Z</time>
      </trkpt>
      <trkpt lat="48.90713" lon="2.07152">
        <ele>82.81</ele>
        <time>2016-07-30T09:49:21Z</time>
      </trkpt>
      <trkpt lat="48.9071" lon="2.07164">
        <ele>83.77</ele>
        <time>2016-07-30T09:49:45Z</time>
      </trkpt>
      <trkpt lat="48.90709" lon="2.07167">
        <ele>85.69</ele>
        <time>2016-07-30T09:50:12Z</time>
      </trkpt>
      <trkpt lat="48.90709" lon="2.0717">
        <ele>85.21</ele>
        <time>2016-07-30T09:50:42Z</time>
      </trkpt>
      <trkpt lat="48.90707" lon="2.07174">
        <ele>85.21</ele>
        <time>2016-07-30T09:51:04Z</time>
      </trkpt>
      <trkpt lat="48.90703" lon="2.07177">
        <ele>84.73</ele>
        <time>2016-07-30T09:51:17Z</time>
      </trkpt>
      <trkpt lat="48.90703" lon="2.07187">
        <ele>83.77</ele>
        <time>2016-07-30T09:51:33Z</time>
      </trkpt>
      <trkpt lat="48.90702" lon="2.07189">
        <ele>82.81</ele>
        <time>2016-07-30T09:51:38Z</time>
      </trkpt>
      <trkpt lat="48.90695" lon="2.07189">
        <ele>80.89</ele>
        <time>2016-07-30T09:51:43Z</time>
      </trkpt>
      <trkpt lat="48.90681" lon="2.0719">
        <ele>78.48</ele>
        <time>2016-07-30T09:51:58Z</time>
      </trkpt>
      <trkpt lat="48.90664" lon="2.07191">
        <ele>76.56</ele>
        <time>2016-07-30T09:52:12Z</time>
      </trkpt>
      <trkpt lat="48.90648" lon="2.07186">
        <ele>73.68</ele>
        <time>2016-07-30T09:52:27Z</time>
      </trkpt>
      <trkpt lat="48.90628" lon="2.07174">
        <ele>73.68</ele>
        <time>2016-07-30T09:52:45Z</time>
      </trkpt>
      <trkpt lat="48.90618" lon="2.07173">
        <ele>73.2</ele>
        <time>2016-07-30T09:53:01Z</time>
      </trkpt>
      <trkpt lat="48.90615" lon="2.07174">
        <ele>73.68</ele>
        <time>2016-07-30T09:53:22Z</time>
      </trkpt>
      <trkpt lat="48.90601" lon="2.07165">
        <ele>72.24</ele>
        <time>2016-07-30T09:53:37Z</time>
      </trkpt>
      <trkpt lat="48.90596" lon="2.07162">
        <ele>72.24</ele>
        <time>2016-07-30T09:53:42Z</time>
      </trkpt>
      <trkpt lat="48.90579" lon="2.07165">
        <ele>71.76</ele>
        <time>2016-07-30T09:53:57Z</time>
      </trkpt>
      <trkpt lat="48.90561" lon="2.07165">
        <ele>65.51</ele>
        <time>2016-07-30T09:54:14Z</time>
      </trkpt>
      <trkpt lat="48.90541" lon="2.07164">
        <ele>58.3</ele>
        <time>2016-07-30T09:54:33Z</time>
      </trkpt>
      <trkpt lat="48.90523" lon="2.07166">
        <ele>62.14</ele>
        <time>2016-07-30T09:54:46Z</time>
      </trkpt>
      <trkpt lat="48.90517" lon="2.0716">
        <ele>60.7</ele>
        <time>2016-07-30T09:54:55Z</time>
      </trkpt>
      <trkpt lat="48.90514" lon="2.07156">
        <ele>60.22</ele>
        <time>2016-07-30T09:54:58Z</time>
      </trkpt>
      <trkpt lat="48.90509" lon="2.07153">
        <ele>62.62</ele>
        <time>2016-07-30T09:55:02Z</time>
      </trkpt>
      <trkpt lat="48.90495" lon="2.07155">
        <ele>65.03</ele>
        <time>2016-07-30T09:55:16Z</time>
      </trkpt>
      <trkpt lat="48.9049" lon="2.0715">
        <ele>66.47</ele>
        <time>2016-07-30T09:55:30Z</time>
      </trkpt>
      <trkpt lat="48.90493" lon="2.07134">
        <ele>67.91</ele>
        <time>2016-07-30T09:55:47Z</time>
      </trkpt>
      <trkpt lat="48.90493" lon="2.07128">
        <ele>68.39</ele>
        <time>2016-07-30T09:56:02Z</time>
      </trkpt>
      <trkpt lat="48.90493" lon="2.07124">
        <ele>69.35</ele>
        <time>2016-07-30T09:56:17Z</time>
      </trkpt>
      <trkpt lat="48.90495" lon="2.07122">
        <ele>69.83</ele>
        <time>2016-07-30T09:56:34Z</time>
      </trkpt>
      <trkpt lat="48.90495" lon="2.07123">
        <ele>69.83</ele>
        <time>2016-07-30T09:56:50Z</time>
      </trkpt>
      <trkpt lat="48.90496" lon="2.07125">
        <ele>70.79</ele>
        <time>2016-07-30T09:57:14Z</time>
      </trkpt>
      <trkpt lat="48.90496" lon="2.07127">
        <ele>72.72</ele>
        <time>2016-07-30T09:57:37Z</time>
      </trkpt>
      <trkpt lat="48.90495" lon="2.07129">
        <ele>72.72</ele>
        <time>2016-07-30T09:57:53Z</time>
      </trkpt>
      <trkpt lat="48.90492" lon="2.07134">
        <ele>71.27</ele>
        <time>2016-07-30T09:58:04Z</time>
      </trkpt>
      <trkpt lat="48.90492" lon="2.07132">
        <ele>71.76</ele>
        <time>2016-07-30T09:58:17Z</time>
      </trkpt>
      <trkpt lat="48.90493" lon="2.07131">
        <ele>71.76</ele>
        <time>2016-07-30T09:58:34Z</time>
      </trkpt>
      <trkpt lat="48.90494" lon="2.0713">
        <ele>71.76</ele>
        <time>2016-07-30T09:58:48Z</time>
      </trkpt>
      <trkpt lat="48.90496" lon="2.0713">
        <ele>72.24</ele>
        <time>2016-07-30T09:59:02Z</time>
      </trkpt>
      <trkpt lat="48.90498" lon="2.07129">
        <ele>71.76</ele>
        <time>2016-07-30T09:59:19Z</time>
      </trkpt>
      <trkpt lat="48.90499" lon="2.07126">
        <ele>71.27</ele>
        <time>2016-07-30T09:59:38Z</time>
      </trkpt>
      <trkpt lat="48.905" lon="2.07124">
        <ele>70.79</ele>
        <time>2016-07-30T09:59:55Z</time>
      </trkpt>
      <trkpt lat="48.90501" lon="2.07122">
        <ele>71.27</ele>
        <time>2016-07-30T10:00:11Z</time>
      </trkpt>
      <trkpt lat="48.90501" lon="2.07121">
        <ele>71.76</ele>
        <time>2016-07-30T10:00:25Z</time>
      </trkpt>
      <trkpt lat="48.90503" lon="2.07124">
        <ele>72.24</ele>
        <time>2016-07-30T10:00:41Z</time>
      </trkpt>
      <trkpt lat="48.90507" lon="2.07126">
        <ele>71.76</ele>
        <time>2016-07-30T10:00:56Z</time>
      </trkpt>
      <trkpt lat="48.9051" lon="2.07121">
        <ele>72.72</ele>
        <time>2016-07-30T10:01:16Z</time>
      </trkpt>
      <trkpt lat="48.90511" lon="2.07121">
        <ele>73.2</ele>
        <time>2016-07-30T10:01:30Z</time>
      </trkpt>
      <trkpt lat="48.90509" lon="2.07125">
        <ele>74.16</ele>
        <time>2016-07-30T10:01:43Z</time>
      </trkpt>
      <trkpt lat="48.9051" lon="2.07128">
        <ele>74.16</ele>
        <time>2016-07-30T10:01:58Z</time>
      </trkpt>
      <trkpt lat="48.9051" lon="2.07129">
        <ele>74.64</ele>
        <time>2016-07-30T10:02:16Z</time>
      </trkpt>
      <trkpt lat="48.90508" lon="2.07122">
        <ele>74.16</ele>
        <time>2016-07-30T10:02:31Z</time>
      </trkpt>
      <trkpt lat="48.90504" lon="2.0712">
        <ele>73.68</ele>
        <time>2016-07-30T10:02:46Z</time>
      </trkpt>
      <trkpt lat="48.90492" lon="2.07121">
        <ele>75.6</ele>
        <time>2016-07-30T10:03:02Z</time>
      </trkpt>
      <trkpt lat="48.90482" lon="2.0712">
        <ele>75.6</ele>
        <time>2016-07-30T10:03:20Z</time>
      </trkpt>
      <trkpt lat="48.90477" lon="2.07123">
        <ele>75.12</ele>
        <time>2016-07-30T10:03:34Z</time>
      </trkpt>
      <trkpt lat="48.90473" lon="2.0713">
        <ele>74.64</ele>
        <time>2016-07-30T10:03:46Z</time>
      </trkpt>
      <trkpt lat="48.90475" lon="2.07135">
        <ele>74.64</ele>
        <time>2016-07-30T10:03:58Z</time>
      </trkpt>
      <trkpt lat="48.90474" lon="2.07138">
        <ele>74.64</ele>
        <time>2016-07-30T10:04:10Z</time>
      </trkpt>
      <trkpt lat="48.90474" lon="2.07141">
        <ele>74.64</ele>
        <time>2016-07-30T10:04:24Z</time>
      </trkpt>
      <trkpt lat="48.90476" lon="2.07144">
        <ele>74.16</ele>
        <time>2016-07-30T10:04:37Z</time>
      </trkpt>
      <trkpt lat="48.90477" lon="2.07146">
        <ele>73.2</ele>
        <time>2016-07-30T10:04:50Z</time>
      </trkpt>
      <trkpt lat="48.9048" lon="2.07146">
        <ele>72.72</ele>
        <time>2016-07-30T10:05:02Z</time>
      </trkpt>
      <trkpt lat="48.90482" lon="2.07139">
        <ele>71.76</ele>
        <time>2016-07-30T10:05:15Z</time>
      </trkpt>
      <trkpt lat="48.90494" lon="2.07132">
        <ele>71.27</ele>
        <time>2016-07-30T10:05:29Z</time>
      </trkpt>
      <trkpt lat="48.90498" lon="2.07131">
        <ele>73.2</ele>
        <time>2016-07-30T10:05:43Z</time>
      </trkpt>
      <trkpt lat="48.90501" lon="2.07134">
        <ele>72.72</ele>
        <time>2016-07-30T10:05:56Z</time>
      </trkpt>
      <trkpt lat="48.90505" lon="2.07135">
        <ele>72.24</ele>
        <time>2016-07-30T10:06:10Z</time>
      </trkpt>
      <trkpt lat="48.90507" lon="2.07136">
        <ele>73.2</ele>
        <time>2016-07-30T10:06:31Z</time>
      </trkpt>
      <trkpt lat="48.90508" lon="2.07136">
        <ele>72.72</ele>
        <time>2016-07-30T10:06:46Z</time>
      </trkpt>
      <trkpt lat="48.90509" lon="2.07135">
        <ele>73.2</ele>
        <time>2016-07-30T10:07:06Z</time>
      </trkpt>
      <trkpt lat="48.9051" lon="2.07134">
        <ele>73.68</ele>
        <time>2016-07-30T10:07:28Z</time>
      </trkpt>
      <trkpt lat="48.90511" lon="2.07134">
        <ele>74.16</ele>
        <time>2016-07-30T10:07:45Z</time>
      </trkpt>
      <trkpt lat="48.90511" lon="2.07133">
        <ele>74.64</ele>
        <time>2016-07-30T10:07:59Z</time>
      </trkpt>
      <trkpt lat="48.90512" lon="2.07133">
        <ele>74.64</ele>
        <time>2016-07-30T10:08:20Z</time>
      </trkpt>
      <trkpt lat="48.90511" lon="2.07133">
        <ele>74.64</ele>
        <time>2016-07-30T10:08:47Z</time>
      </trkpt>
      <trkpt lat="48.9051" lon="2.07131">
        <ele>74.16</ele>
        <time>2016-07-30T10:09:26Z</time>
      </trkpt>
      <trkpt lat="48.90511" lon="2.07132">
        <ele>74.16</ele>
        <time>2016-07-30T10:09:44Z</time>
      </trkpt>
      <trkpt lat="48.9051" lon="2.07132">
        <ele>74.16</ele>
        <time>2016-07-30T10:10:01Z</time>
      </trkpt>
      <trkpt lat="48.9051" lon="2.07131">
        <ele>73.68</ele>
        <time>2016-07-30T10:10:19Z</time>
      </trkpt>
      <trkpt lat="48.9051" lon="2.0713">
        <ele>73.2</ele>
        <time>2016-07-30T10:10:37Z</time>
      </trkpt>
      <trkpt lat="48.9051" lon="2.0713">
        <ele>72.72</ele>
        <time>2016-07-30T10:11:04Z</time>
      </trkpt>
      <trkpt lat="48.9051" lon="2.07129">
        <ele>73.2</ele>
        <time>2016-07-30T10:11:21Z</time>
      </trkpt>
      <trkpt lat="48.9051" lon="2.07126">
        <ele>74.64</ele>
        <time>2016-07-30T10:11:38Z</time>
      </trkpt>
      <trkpt lat="48.9051" lon="2.07126">
        <ele>75.12</ele>
        <time>2016-07-30T10:11:50Z</time>
      </trkpt>
      <trkpt lat="48.90511" lon="2.07126">
        <ele>74.64</ele>
        <time>2016-07-30T10:12:03Z</time>
      </trkpt>
      <trkpt lat="48.90511" lon="2.07126">
        <ele>75.12</ele>
        <time>2016-07-30T10:12:17Z</time>
      </trkpt>
      <trkpt lat="48.90511" lon="2.07125">
        <ele>74.16</ele>
        <time>2016-07-30T10:12:39Z</time>
      </trkpt>
      <trkpt lat="48.9051" lon="2.07126">
        <ele>74.16</ele>
        <time>2016-07-30T10:12:53Z</time>
      </trkpt>
      <trkpt lat="48.9051" lon="2.07126">
        <ele>73.68</ele>
        <time>2016-07-30T10:13:10Z</time>
      </trkpt>
      <trkpt lat="48.90508" lon="2.07127">
        <ele>72.72</ele>
        <time>2016-07-30T10:13:27Z</time>
      </trkpt>
      <trkpt lat="48.90507" lon="2.07129">
        <ele>72.24</ele>
        <time>2016-07-30T10:13:42Z</time>
      </trkpt>
      <trkpt lat="48.90503" lon="2.07133">
        <ele>71.76</ele>
        <time>2016-07-30T10:13:57Z</time>
      </trkpt>
      <trkpt lat="48.90502" lon="2.07135">
        <ele>71.76</ele>
        <time>2016-07-30T10:14:11Z</time>
      </trkpt>
      <trkpt lat="48.90502" lon="2.07135">
        <ele>71.76</ele>
        <time>2016-07-30T10:14:25Z</time>
      </trkpt>
      <trkpt lat="48.90502" lon="2.07139">
        <ele>71.76</ele>
        <time>2016-07-30T10:14:37Z</time>
      </trkpt>
      <trkpt lat="48.90501" lon="2.07142">
        <ele>71.27</ele>
        <time>2016-07-30T10:14:53Z</time>
      </trkpt>
      <trkpt lat="48.90498" lon="2.07147">
        <ele>71.27</ele>
        <time>2016-07-30T10:15:06Z</time>
      </trkpt>
      <trkpt lat="48.90496" lon="2.07147">
        <ele>72.24</ele>
        <time>2016-07-30T10:15:20Z</time>
      </trkpt>
      <trkpt lat="48.90493" lon="2.07149">
        <ele>73.2</ele>
        <time>2016-07-30T10:15:34Z</time>
      </trkpt>
      <trkpt lat="48.90493" lon="2.07148">
        <ele>73.2</ele>
        <time>2016-07-30T10:15:47Z</time>
      </trkpt>
      <trkpt lat="48.90495" lon="2.07148">
        <ele>72.72</ele>
        <time>2016-07-30T10:16:02Z</time>
      </trkpt>
      <trkpt lat="48.90496" lon="2.07141">
        <ele>72.72</ele>
        <time>2016-07-30T10:16:13Z</time>
      </trkpt>
      <trkpt lat="48.905" lon="2.07129">
        <ele>71.76</ele>
        <time>2016-07-30T10:16:30Z</time>
      </trkpt>
      <trkpt lat="48.90504" lon="2.07129">
        <ele>73.2</ele>
        <time>2016-07-30T10:16:44Z</time>
      </trkpt>
      <trkpt lat="48.90507" lon="2.07129">
        <ele>74.16</ele>
        <time>2016-07-30T10:17:00Z</time>
      </trkpt>
      <trkpt lat="48.90509" lon="2.0713">
        <ele>74.16</ele>
        <time>2016-07-30T10:17:16Z</time>
      </trkpt>
      <trkpt lat="48.9051" lon="2.07131">
        <ele>74.16</ele>
        <time>2016-07-30T10:17:32Z</time>
      </trkpt>
      <trkpt lat="48.90508" lon="2.07139">
        <ele>73.68</ele>
        <time>2016-07-30T10:17:46Z</time>
      </trkpt>
      <trkpt lat="48.90507" lon="2.07141">
        <ele>74.16</ele>
        <time>2016-07-30T10:18:01Z</time>
      </trkpt>
      <trkpt lat="48.90507" lon="2.07144">
        <ele>75.12</ele>
        <time>2016-07-30T10:18:18Z</time>
      </trkpt>
      <trkpt lat="48.90507" lon="2.07145">
        <ele>74.64</ele>
        <time>2016-07-30T10:18:40Z</time>
      </trkpt>
      <trkpt lat="48.90507" lon="2.07146">
        <ele>74.64</ele>
        <time>2016-07-30T10:18:58Z</time>
      </trkpt>
      <trkpt lat="48.90508" lon="2.07141">
        <ele>74.64</ele>
        <time>2016-07-30T10:19:10Z</time>
      </trkpt>
      <trkpt lat="48.90509" lon="2.07138">
        <ele>74.64</ele>
        <time>2016-07-30T10:19:29Z</time>
      </trkpt>
      <trkpt lat="48.90508" lon="2.07133">
        <ele>73.68</ele>
        <time>2016-07-30T10:19:46Z</time>
      </trkpt>
      <trkpt lat="48.90507" lon="2.07128">
        <ele>72.72</ele>
        <time>2016-07-30T10:20:15Z</time>
      </trkpt>
      <trkpt lat="48.90506" lon="2.07125">
        <ele>71.27</ele>
        <time>2016-07-30T10:20:49Z</time>
      </trkpt>
      <trkpt lat="48.90504" lon="2.07121">
        <ele>70.79</ele>
        <time>2016-07-30T10:21:25Z</time>
      </trkpt>
      <trkpt lat="48.90504" lon="2.07118">
        <ele>70.31</ele>
        <time>2016-07-30T10:21:43Z</time>
      </trkpt>
      <trkpt lat="48.90505" lon="2.07116">
        <ele>69.83</ele>
        <time>2016-07-30T10:21:59Z</time>
      </trkpt>
      <trkpt lat="48.905" lon="2.07112">
        <ele>70.31</ele>
        <time>2016-07-30T10:22:14Z</time>
      </trkpt>
      <trkpt lat="48.90499" lon="2.07109">
        <ele>70.79</ele>
        <time>2016-07-30T10:22:29Z</time>
      </trkpt>
      <trkpt lat="48.90497" lon="2.07107">
        <ele>70.31</ele>
        <time>2016-07-30T10:22:49Z</time>
      </trkpt>
      <trkpt lat="48.90495" lon="2.07107">
        <ele>70.79</ele>
        <time>2016-07-30T10:23:06Z</time>
      </trkpt>
      <trkpt lat="48.90491" lon="2.0711">
        <ele>70.79</ele>
        <time>2016-07-30T10:23:24Z</time>
      </trkpt>
      <trkpt lat="48.90491" lon="2.07119">
        <ele>71.27</ele>
        <time>2016-07-30T10:23:35Z</time>
      </trkpt>
      <trkpt lat="48.9049" lon="2.07125">
        <ele>71.76</ele>
        <time>2016-07-30T10:23:49Z</time>
      </trkpt>
      <trkpt lat="48.90493" lon="2.07126">
        <ele>71.76</ele>
        <time>2016-07-30T10:24:02Z</time>
      </trkpt>
      <trkpt lat="48.905" lon="2.0712">
        <ele>72.24</ele>
        <time>2016-07-30T10:24:18Z</time>
      </trkpt>
      <trkpt lat="48.905" lon="2.07114">
        <ele>70.31</ele>
        <time>2016-07-30T10:24:38Z</time>
      </trkpt>
      <trkpt lat="48.90503" lon="2.07116">
        <ele>70.31</ele>
        <time>2016-07-30T10:24:50Z</time>
      </trkpt>
      <trkpt lat="48.90506" lon="2.07118">
        <ele>71.27</ele>
        <time>2016-07-30T10:25:04Z</time>
      </trkpt>
      <trkpt lat="48.90508" lon="2.07119">
        <ele>71.27</ele>
        <time>2016-07-30T10:25:13Z</time>
      </trkpt>
      <trkpt lat="48.90508" lon="2.0712">
        <ele>71.76</ele>
        <time>2016-07-30T10:25:26Z</time>
      </trkpt>
      <trkpt lat="48.90515" lon="2.07134">
        <ele>70.79</ele>
        <time>2016-07-30T10:25:37Z</time>
      </trkpt>
      <trkpt lat="48.90517" lon="2.07145">
        <ele>71.76</ele>
        <time>2016-07-30T10:25:51Z</time>
      </trkpt>
      <trkpt lat="48.90517" lon="2.07147">
        <ele>72.72</ele>
        <time>2016-07-30T10:26:08Z</time>
      </trkpt>
      <trkpt lat="48.90517" lon="2.0715">
        <ele>73.68</ele>
        <time>2016-07-30T10:26:22Z</time>
      </trkpt>
      <trkpt lat="48.90517" lon="2.07154">
        <ele>74.64</ele>
        <time>2016-07-30T10:26:36Z</time>
      </trkpt>
      <trkpt lat="48.90519" lon="2.07153">
        <ele>74.16</ele>
        <time>2016-07-30T10:27:08Z</time>
      </trkpt>
      <trkpt lat="48.90518" lon="2.07156">
        <ele>75.6</ele>
        <time>2016-07-30T10:27:30Z</time>
      </trkpt>
      <trkpt lat="48.9052" lon="2.07155">
        <ele>74.64</ele>
        <time>2016-07-30T10:27:54Z</time>
      </trkpt>
      <trkpt lat="48.90521" lon="2.07155">
        <ele>75.12</ele>
        <time>2016-07-30T10:28:19Z</time>
      </trkpt>
      <trkpt lat="48.90522" lon="2.07155">
        <ele>75.6</ele>
        <time>2016-07-30T10:28:37Z</time>
      </trkpt>
      <trkpt lat="48.90522" lon="2.07154">
        <ele>75.12</ele>
        <time>2016-07-30T10:29:04Z</time>
      </trkpt>
      <trkpt lat="48.90521" lon="2.07153">
        <ele>74.16</ele>
        <time>2016-07-30T10:29:36Z</time>
      </trkpt>
      <trkpt lat="48.9052" lon="2.07152">
        <ele>75.12</ele>
        <time>2016-07-30T10:30:10Z</time>
      </trkpt>
      <trkpt lat="48.90519" lon="2.07154">
        <ele>77.52</ele>
        <time>2016-07-30T10:30:37Z</time>
      </trkpt>
      <trkpt lat="48.90518" lon="2.07154">
        <ele>78</ele>
        <time>2016-07-30T10:31:10Z</time>
      </trkpt>
      <trkpt lat="48.90519" lon="2.07154">
        <ele>77.52</ele>
        <time>2016-07-30T10:31:28Z</time>
      </trkpt>
      <trkpt lat="48.90519" lon="2.07155">
        <ele>78.97</ele>
        <time>2016-07-30T10:31:45Z</time>
      </trkpt>
      <trkpt lat="48.9052" lon="2.07156">
        <ele>79.45</ele>
        <time>2016-07-30T10:32:13Z</time>
      </trkpt>
      <trkpt lat="48.9052" lon="2.07156">
        <ele>79.93</ele>
        <time>2016-07-30T10:32:22Z</time>
      </trkpt>
      <trkpt lat="48.90521" lon="2.07152">
        <ele>78.97</ele>
        <time>2016-07-30T10:32:35Z</time>
      </trkpt>
      <trkpt lat="48.90521" lon="2.07152">
        <ele>79.45</ele>
        <time>2016-07-30T10:32:54Z</time>
      </trkpt>
      <trkpt lat="48.90522" lon="2.07152">
        <ele>79.93</ele>
        <time>2016-07-30T10:33:09Z</time>
      </trkpt>
      <trkpt lat="48.90522" lon="2.07153">
        <ele>80.41</ele>
        <time>2016-07-30T10:33:35Z</time>
      </trkpt>
      <trkpt lat="48.90521" lon="2.07153">
        <ele>80.41</ele>
        <time>2016-07-30T10:33:57Z</time>
      </trkpt>
      <trkpt lat="48.9052" lon="2.07153">
        <ele>79.93</ele>
        <time>2016-07-30T10:34:19Z</time>
      </trkpt>
      <trkpt lat="48.90521" lon="2.07154">
        <ele>80.41</ele>
        <time>2016-07-30T10:34:35Z</time>
      </trkpt>
      <trkpt lat="48.90519" lon="2.0715">
        <ele>80.89</ele>
        <time>2016-07-30T10:34:45Z</time>
      </trkpt>
      <trkpt lat="48.90518" lon="2.0715">
        <ele>80.41</ele>
        <time>2016-07-30T10:35:02Z</time>
      </trkpt>
      <trkpt lat="48.90516" lon="2.0715">
        <ele>78.97</ele>
        <time>2016-07-30T10:35:20Z</time>
      </trkpt>
      <trkpt lat="48.90515" lon="2.07151">
        <ele>78.48</ele>
        <time>2016-07-30T10:35:45Z</time>
      </trkpt>
      <trkpt lat="48.90516" lon="2.07145">
        <ele>77.04</ele>
        <time>2016-07-30T10:36:01Z</time>
      </trkpt>
      <trkpt lat="48.90519" lon="2.0714">
        <ele>76.08</ele>
        <time>2016-07-30T10:36:20Z</time>
      </trkpt>
      <trkpt lat="48.90518" lon="2.07136">
        <ele>76.56</ele>
        <time>2016-07-30T10:36:31Z</time>
      </trkpt>
      <trkpt lat="48.90522" lon="2.07135">
        <ele>75.6</ele>
        <time>2016-07-30T10:36:57Z</time>
      </trkpt>
      <trkpt lat="48.90523" lon="2.07132">
        <ele>74.64</ele>
        <time>2016-07-30T10:37:16Z</time>
      </trkpt>
      <trkpt lat="48.90522" lon="2.07131">
        <ele>74.16</ele>
        <time>2016-07-30T10:37:30Z</time>
      </trkpt>
      <trkpt lat="48.9052" lon="2.07131">
        <ele>74.16</ele>
        <time>2016-07-30T10:37:45Z</time>
      </trkpt>
      <trkpt lat="48.90519" lon="2.0713">
        <ele>73.2</ele>
        <time>2016-07-30T10:38:00Z</time>
      </trkpt>
      <trkpt lat="48.90517" lon="2.07128">
        <ele>72.24</ele>
        <time>2016-07-30T10:38:20Z</time>
      </trkpt>
      <trkpt lat="48.90517" lon="2.07127">
        <ele>72.72</ele>
        <time>2016-07-30T10:38:35Z</time>
      </trkpt>
      <trkpt lat="48.90516" lon="2.07129">
        <ele>73.2</ele>
        <time>2016-07-30T10:38:47Z</time>
      </trkpt>
      <trkpt lat="48.90516" lon="2.07129">
        <ele>73.68</ele>
        <time>2016-07-30T10:39:00Z</time>
      </trkpt>
      <trkpt lat="48.90516" lon="2.0713">
        <ele>73.2</ele>
        <time>2016-07-30T10:39:14Z</time>
      </trkpt>
      <trkpt lat="48.90515" lon="2.0713">
        <ele>72.72</ele>
        <time>2016-07-30T10:39:32Z</time>
      </trkpt>
      <trkpt lat="48.90512" lon="2.07129">
        <ele>72.72</ele>
        <time>2016-07-30T10:39:46Z</time>
      </trkpt>
      <trkpt lat="48.90512" lon="2.07126">
        <ele>72.24</ele>
        <time>2016-07-30T10:40:01Z</time>
      </trkpt>
      <trkpt lat="48.90512" lon="2.07127">
        <ele>73.2</ele>
        <time>2016-07-30T10:40:18Z</time>
      </trkpt>
      <trkpt lat="48.90512" lon="2.0713">
        <ele>73.2</ele>
        <time>2016-07-30T10:40:34Z</time>
      </trkpt>
      <trkpt lat="48.90513" lon="2.07131">
        <ele>73.2</ele>
        <time>2016-07-30T10:40:52Z</time>
      </trkpt>
      <trkpt lat="48.90515" lon="2.0713">
        <ele>72.24</ele>
        <time>2016-07-30T10:41:11Z</time>
      </trkpt>
      <trkpt lat="48.9052" lon="2.07125">
        <ele>72.24</ele>
        <time>2016-07-30T10:41:30Z</time>
      </trkpt>
      <trkpt lat="48.90523" lon="2.07124">
        <ele>71.76</ele>
        <time>2016-07-30T10:41:37Z</time>
      </trkpt>
      <trkpt lat="48.90527" lon="2.07118">
        <ele>72.72</ele>
        <time>2016-07-30T10:41:53Z</time>
      </trkpt>
      <trkpt lat="48.9054" lon="2.07102">
        <ele>72.72</ele>
        <time>2016-07-30T10:42:10Z</time>
      </trkpt>
      <trkpt lat="48.90558" lon="2.07084">
        <ele>71.27</ele>
        <time>2016-07-30T10:42:25Z</time>
      </trkpt>
      <trkpt lat="48.90571" lon="2.07072">
        <ele>70.31</ele>
        <time>2016-07-30T10:42:39Z</time>
      </trkpt>
      <trkpt lat="48.90586" lon="2.0705">
        <ele>67.43</ele>
        <time>2016-07-30T10:42:54Z</time>
      </trkpt>
      <trkpt lat="48.90605" lon="2.07023">
        <ele>64.07</ele>
        <time>2016-07-30T10:43:11Z</time>
      </trkpt>
      <trkpt lat="48.90614" lon="2.07016">
        <ele>64.07</ele>
        <time>2016-07-30T10:43:28Z</time>
      </trkpt>
      <trkpt lat="48.9063" lon="2.0699">
        <ele>60.7</ele>
        <time>2016-07-30T10:43:46Z</time>
      </trkpt>
      <trkpt lat="48.90631" lon="2.06982">
        <ele>63.1</ele>
        <time>2016-07-30T10:43:58Z</time>
      </trkpt>
      <trkpt lat="48.9063" lon="2.06954">
        <ele>65.51</ele>
        <time>2016-07-30T10:44:14Z</time>
      </trkpt>
      <trkpt lat="48.90621" lon="2.06955">
        <ele>64.07</ele>
        <time>2016-07-30T10:44:28Z</time>
      </trkpt>
      <trkpt lat="48.90616" lon="2.06957">
        <ele>64.55</ele>
        <time>2016-07-30T10:44:42Z</time>
      </trkpt>
      <trkpt lat="48.90614" lon="2.06957">
        <ele>63.58</ele>
        <time>2016-07-30T10:44:56Z</time>
      </trkpt>
      <trkpt lat="48.90613" lon="2.06956">
        <ele>64.07</ele>
        <time>2016-07-30T10:45:13Z</time>
      </trkpt>
      <trkpt lat="48.90613" lon="2.06956">
        <ele>65.03</ele>
        <time>2016-07-30T10:45:29Z</time>
      </trkpt>
      <trkpt lat="48.90614" lon="2.06953">
        <ele>64.55</ele>
        <time>2016-07-30T10:45:43Z</time>
      </trkpt>
      <trkpt lat="48.90615" lon="2.06948">
        <ele>64.55</ele>
        <time>2016-07-30T10:45:59Z</time>
      </trkpt>
      <trkpt lat="48.90615" lon="2.06945">
        <ele>64.07</ele>
        <time>2016-07-30T10:46:20Z</time>
      </trkpt>
      <trkpt lat="48.90616" lon="2.06945">
        <ele>62.62</ele>
        <time>2016-07-30T10:46:42Z</time>
      </trkpt>
      <trkpt lat="48.9061" lon="2.06949">
        <ele>60.7</ele>
        <time>2016-07-30T10:46:58Z</time>
      </trkpt>
      <trkpt lat="48.90601" lon="2.06951">
        <ele>60.22</ele>
        <time>2016-07-30T10:47:10Z</time>
      </trkpt>
      <trkpt lat="48.90596" lon="2.06945">
        <ele>61.66</ele>
        <time>2016-07-30T10:47:24Z</time>
      </trkpt>
      <trkpt lat="48.90598" lon="2.06944">
        <ele>62.14</ele>
        <time>2016-07-30T10:47:43Z</time>
      </trkpt>
      <trkpt lat="48.906" lon="2.06942">
        <ele>62.62</ele>
        <time>2016-07-30T10:47:56Z</time>
      </trkpt>
      <trkpt lat="48.90598" lon="2.06935">
        <ele>61.18</ele>
        <time>2016-07-30T10:48:13Z</time>
      </trkpt>
      <trkpt lat="48.90599" lon="2.06934">
        <ele>61.66</ele>
        <time>2016-07-30T10:48:31Z</time>
      </trkpt>
      <trkpt lat="48.90603" lon="2.06933">
        <ele>60.7</ele>
        <time>2016-07-30T10:48:43Z</time>
      </trkpt>
      <trkpt lat="48.90609" lon="2.0693">
        <ele>58.78</ele>
        <time>2016-07-30T10:48:55Z</time>
      </trkpt>
      <trkpt lat="48.9061" lon="2.0693">
        <ele>58.3</ele>
        <time>2016-07-30T10:49:04Z</time>
      </trkpt>
      <trkpt lat="48.90614" lon="2.06932">
        <ele>58.3</ele>
        <time>2016-07-30T10:49:16Z</time>
      </trkpt>
      <trkpt lat="48.90618" lon="2.06933">
        <ele>58.78</ele>
        <time>2016-07-30T10:49:34Z</time>
      </trkpt>
      <trkpt lat="48.90616" lon="2.06941">
        <ele>59.74</ele>
        <time>2016-07-30T10:49:48Z</time>
      </trkpt>
      <trkpt lat="48.90616" lon="2.06944">
        <ele>60.7</ele>
        <time>2016-07-30T10:50:03Z</time>
      </trkpt>
      <trkpt lat="48.90613" lon="2.06951">
        <ele>60.22</ele>
        <time>2016-07-30T10:50:17Z</time>
      </trkpt>
      <trkpt lat="48.90612" lon="2.0695">
        <ele>59.74</ele>
        <time>2016-07-30T10:50:34Z</time>
      </trkpt>
      <trkpt lat="48.90614" lon="2.06953">
        <ele>60.7</ele>
        <time>2016-07-30T10:50:48Z</time>
      </trkpt>
      <trkpt lat="48.90615" lon="2.06957">
        <ele>61.66</ele>
        <time>2016-07-30T10:51:06Z</time>
      </trkpt>
      <trkpt lat="48.90616" lon="2.06957">
        <ele>61.18</ele>
        <time>2016-07-30T10:51:33Z</time>
      </trkpt>
      <trkpt lat="48.90618" lon="2.06959">
        <ele>61.18</ele>
        <time>2016-07-30T10:51:55Z</time>
      </trkpt>
      <trkpt lat="48.90618" lon="2.06957">
        <ele>61.18</ele>
        <time>2016-07-30T10:52:20Z</time>
      </trkpt>
      <trkpt lat="48.90619" lon="2.06955">
        <ele>59.26</ele>
        <time>2016-07-30T10:52:55Z</time>
      </trkpt>
      <trkpt lat="48.90621" lon="2.06954">
        <ele>58.78</ele>
        <time>2016-07-30T10:53:22Z</time>
      </trkpt>
      <trkpt lat="48.90622" lon="2.06953">
        <ele>58.78</ele>
        <time>2016-07-30T10:53:55Z</time>
      </trkpt>
      <trkpt lat="48.90622" lon="2.06953">
        <ele>58.3</ele>
        <time>2016-07-30T10:54:26Z</time>
      </trkpt>
      <trkpt lat="48.90623" lon="2.06953">
        <ele>58.78</ele>
        <time>2016-07-30T10:54:56Z</time>
      </trkpt>
      <trkpt lat="48.90622" lon="2.06955">
        <ele>57.82</ele>
        <time>2016-07-30T10:55:16Z</time>
      </trkpt>
      <trkpt lat="48.90618" lon="2.06954">
        <ele>57.82</ele>
        <time>2016-07-30T10:55:52Z</time>
      </trkpt>
      <trkpt lat="48.90615" lon="2.06955">
        <ele>56.86</ele>
        <time>2016-07-30T10:56:19Z</time>
      </trkpt>
      <trkpt lat="48.90614" lon="2.06958">
        <ele>56.37</ele>
        <time>2016-07-30T10:56:33Z</time>
      </trkpt>
      <trkpt lat="48.90612" lon="2.06964">
        <ele>55.41</ele>
        <time>2016-07-30T10:56:48Z</time>
      </trkpt>
      <trkpt lat="48.90612" lon="2.06972">
        <ele>55.41</ele>
        <time>2016-07-30T10:57:03Z</time>
      </trkpt>
      <trkpt lat="48.90602" lon="2.06988">
        <ele>55.41</ele>
        <time>2016-07-30T10:57:18Z</time>
      </trkpt>
      <trkpt lat="48.90589" lon="2.0702">
        <ele>54.93</ele>
        <time>2016-07-30T10:57:37Z</time>
      </trkpt>
      <trkpt lat="48.90576" lon="2.07048">
        <ele>56.86</ele>
        <time>2016-07-30T10:57:53Z</time>
      </trkpt>
      <trkpt lat="48.90575" lon="2.07051">
        <ele>56.86</ele>
        <time>2016-07-30T10:57:55Z</time>
      </trkpt>
      <trkpt lat="48.90552" lon="2.0708">
        <ele>58.78</ele>
        <time>2016-07-30T10:58:11Z</time>
      </trkpt>
      <trkpt lat="48.90535" lon="2.07096">
        <ele>61.18</ele>
        <time>2016-07-30T10:58:27Z</time>
      </trkpt>
      <trkpt lat="48.90523" lon="2.07112">
        <ele>64.07</ele>
        <time>2016-07-30T10:58:43Z</time>
      </trkpt>
      <trkpt lat="48.90512" lon="2.0711">
        <ele>65.99</ele>
        <time>2016-07-30T10:58:58Z</time>
      </trkpt>
      <trkpt lat="48.90514" lon="2.07114">
        <ele>65.99</ele>
        <time>2016-07-30T10:59:17Z</time>
      </trkpt>
      <trkpt lat="48.90513" lon="2.07115">
        <ele>66.95</ele>
        <time>2016-07-30T10:59:40Z</time>
      </trkpt>
      <trkpt lat="48.90512" lon="2.07115">
        <ele>67.43</ele>
        <time>2016-07-30T10:59:59Z</time>
      </trkpt>
      <trkpt lat="48.90508" lon="2.07119">
        <ele>67.91</ele>
        <time>2016-07-30T11:00:13Z</time>
      </trkpt>
      <trkpt lat="48.90506" lon="2.07123">
        <ele>69.35</ele>
        <time>2016-07-30T11:00:29Z</time>
      </trkpt>
      <trkpt lat="48.905" lon="2.07129">
        <ele>69.83</ele>
        <time>2016-07-30T11:00:45Z</time>
      </trkpt>
      <trkpt lat="48.90497" lon="2.07131">
        <ele>69.35</ele>
        <time>2016-07-30T11:00:47Z</time>
      </trkpt>
      <trkpt lat="48.90479" lon="2.07132">
        <ele>64.55</ele>
        <time>2016-07-30T11:01:01Z</time>
      </trkpt>
      <trkpt lat="48.90472" lon="2.07131">
        <ele>63.58</ele>
        <time>2016-07-30T11:01:15Z</time>
      </trkpt>
      <trkpt lat="48.90471" lon="2.07136">
        <ele>64.55</ele>
        <time>2016-07-30T11:01:31Z</time>
      </trkpt>
      <trkpt lat="48.90469" lon="2.07138">
        <ele>65.03</ele>
        <time>2016-07-30T11:01:47Z</time>
      </trkpt>
      <trkpt lat="48.90467" lon="2.07138">
        <ele>65.51</ele>
        <time>2016-07-30T11:02:04Z</time>
      </trkpt>
      <trkpt lat="48.90462" lon="2.07137">
        <ele>66.95</ele>
        <time>2016-07-30T11:02:16Z</time>
      </trkpt>
      <trkpt lat="48.90461" lon="2.07139">
        <ele>68.39</ele>
        <time>2016-07-30T11:02:33Z</time>
      </trkpt>
      <trkpt lat="48.90465" lon="2.07137">
        <ele>69.35</ele>
        <time>2016-07-30T11:02:48Z</time>
      </trkpt>
      <trkpt lat="48.90466" lon="2.07136">
        <ele>70.31</ele>
        <time>2016-07-30T11:02:57Z</time>
      </trkpt>
      <trkpt lat="48.90467" lon="2.07141">
        <ele>69.83</ele>
        <time>2016-07-30T11:03:09Z</time>
      </trkpt>
      <trkpt lat="48.90467" lon="2.0714">
        <ele>69.83</ele>
        <time>2016-07-30T11:03:22Z</time>
      </trkpt>
      <trkpt lat="48.90467" lon="2.0714">
        <ele>69.83</ele>
        <time>2016-07-30T11:03:40Z</time>
      </trkpt>
      <trkpt lat="48.90467" lon="2.07139">
        <ele>69.83</ele>
        <time>2016-07-30T11:03:56Z</time>
      </trkpt>
      <trkpt lat="48.90467" lon="2.07137">
        <ele>70.31</ele>
        <time>2016-07-30T11:04:09Z</time>
      </trkpt>
      <trkpt lat="48.90467" lon="2.07135">
        <ele>70.31</ele>
        <time>2016-07-30T11:04:25Z</time>
      </trkpt>
      <trkpt lat="48.90467" lon="2.07135">
        <ele>70.31</ele>
        <time>2016-07-30T11:04:26Z</time>
      </trkpt>
      <trkpt lat="48.90469" lon="2.07147">
        <ele>70.31</ele>
        <time>2016-07-30T11:04:41Z</time>
      </trkpt>
      <trkpt lat="48.90471" lon="2.0715">
        <ele>71.27</ele>
        <time>2016-07-30T11:04:54Z</time>
      </trkpt>
      <trkpt lat="48.90473" lon="2.07153">
        <ele>71.76</ele>
        <time>2016-07-30T11:05:09Z</time>
      </trkpt>
      <trkpt lat="48.90475" lon="2.07152">
        <ele>72.24</ele>
        <time>2016-07-30T11:05:27Z</time>
      </trkpt>
      <trkpt lat="48.90476" lon="2.07151">
        <ele>72.72</ele>
        <time>2016-07-30T11:05:42Z</time>
      </trkpt>
      <trkpt lat="48.90477" lon="2.07149">
        <ele>73.2</ele>
        <time>2016-07-30T11:05:48Z</time>
      </trkpt>
      <trkpt lat="48.90478" lon="2.07149">
        <ele>72.24</ele>
        <time>2016-07-30T11:06:04Z</time>
      </trkpt>
      <trkpt lat="48.90478" lon="2.07152">
        <ele>72.72</ele>
        <time>2016-07-30T11:06:18Z</time>
      </trkpt>
      <trkpt lat="48.90481" lon="2.07146">
        <ele>70.79</ele>
        <time>2016-07-30T11:06:31Z</time>
      </trkpt>
      <trkpt lat="48.90483" lon="2.07143">
        <ele>71.27</ele>
        <time>2016-07-30T11:06:42Z</time>
      </trkpt>
      <trkpt lat="48.90485" lon="2.0714">
        <ele>71.27</ele>
        <time>2016-07-30T11:06:55Z</time>
      </trkpt>
      <trkpt lat="48.90487" lon="2.07136">
        <ele>70.79</ele>
        <time>2016-07-30T11:07:10Z</time>
      </trkpt>
      <trkpt lat="48.90495" lon="2.07133">
        <ele>70.31</ele>
        <time>2016-07-30T11:07:23Z</time>
      </trkpt>
      <trkpt lat="48.90496" lon="2.07134">
        <ele>70.31</ele>
        <time>2016-07-30T11:07:36Z</time>
      </trkpt>
      <trkpt lat="48.90495" lon="2.07132">
        <ele>70.31</ele>
        <time>2016-07-30T11:07:53Z</time>
      </trkpt>
      <trkpt lat="48.90496" lon="2.07136">
        <ele>70.31</ele>
        <time>2016-07-30T11:08:07Z</time>
      </trkpt>
      <trkpt lat="48.90497" lon="2.07139">
        <ele>70.31</ele>
        <time>2016-07-30T11:08:21Z</time>
      </trkpt>
      <trkpt lat="48.90498" lon="2.07142">
        <ele>71.27</ele>
        <time>2016-07-30T11:08:34Z</time>
      </trkpt>
      <trkpt lat="48.90499" lon="2.07145">
        <ele>71.76</ele>
        <time>2016-07-30T11:08:48Z</time>
      </trkpt>
      <trkpt lat="48.905" lon="2.07146">
        <ele>72.24</ele>
        <time>2016-07-30T11:09:03Z</time>
      </trkpt>
      <trkpt lat="48.905" lon="2.07146">
        <ele>73.68</ele>
        <time>2016-07-30T11:09:20Z</time>
      </trkpt>
      <trkpt lat="48.90501" lon="2.07145">
        <ele>72.72</ele>
        <time>2016-07-30T11:09:33Z</time>
      </trkpt>
      <trkpt lat="48.90502" lon="2.07143">
        <ele>71.76</ele>
        <time>2016-07-30T11:09:52Z</time>
      </trkpt>
      <trkpt lat="48.90502" lon="2.0714">
        <ele>70.31</ele>
        <time>2016-07-30T11:10:18Z</time>
      </trkpt>
      <trkpt lat="48.90502" lon="2.07138">
        <ele>70.31</ele>
        <time>2016-07-30T11:10:42Z</time>
      </trkpt>
      <trkpt lat="48.90502" lon="2.07136">
        <ele>68.87</ele>
        <time>2016-07-30T11:10:59Z</time>
      </trkpt>
      <trkpt lat="48.90503" lon="2.07139">
        <ele>69.35</ele>
        <time>2016-07-30T11:11:15Z</time>
      </trkpt>
      <trkpt lat="48.90503" lon="2.07142">
        <ele>69.35</ele>
        <time>2016-07-30T11:11:45Z</time>
      </trkpt>
      <trkpt lat="48.90503" lon="2.07143">
        <ele>68.87</ele>
        <time>2016-07-30T11:12:19Z</time>
      </trkpt>
      <trkpt lat="48.90503" lon="2.07143">
        <ele>68.87</ele>
        <time>2016-07-30T11:12:32Z</time>
      </trkpt>
      <trkpt lat="48.90503" lon="2.07145">
        <ele>67.43</ele>
        <time>2016-07-30T11:12:58Z</time>
      </trkpt>
      <trkpt lat="48.90503" lon="2.07147">
        <ele>66.95</ele>
        <time>2016-07-30T11:13:32Z</time>
      </trkpt>
      <trkpt lat="48.90503" lon="2.07147">
        <ele>68.39</ele>
        <time>2016-07-30T11:13:58Z</time>
      </trkpt>
      <trkpt lat="48.90506" lon="2.07152">
        <ele>68.39</ele>
        <time>2016-07-30T11:14:15Z</time>
      </trkpt>
      <trkpt lat="48.90506" lon="2.07153">
        <ele>68.39</ele>
        <time>2016-07-30T11:14:23Z</time>
      </trkpt>
      <trkpt lat="48.90511" lon="2.07161">
        <ele>68.87</ele>
        <time>2016-07-30T11:14:30Z</time>
      </trkpt>
      <trkpt lat="48.90513" lon="2.07163">
        <ele>70.31</ele>
        <time>2016-07-30T11:14:42Z</time>
      </trkpt>
      <trkpt lat="48.90505" lon="2.07158">
        <ele>69.83</ele>
        <time>2016-07-30T11:14:57Z</time>
      </trkpt>
      <trkpt lat="48.90503" lon="2.07157">
        <ele>70.31</ele>
        <time>2016-07-30T11:15:06Z</time>
      </trkpt>
      <trkpt lat="48.90506" lon="2.07155">
        <ele>69.83</ele>
        <time>2016-07-30T11:15:11Z</time>
      </trkpt>
      <trkpt lat="48.90511" lon="2.07156">
        <ele>69.83</ele>
        <time>2016-07-30T11:15:15Z</time>
      </trkpt>
      <trkpt lat="48.90509" lon="2.07153">
        <ele>68.87</ele>
        <time>2016-07-30T11:15:22Z</time>
      </trkpt>
      <trkpt lat="48.9051" lon="2.07148">
        <ele>68.87</ele>
        <time>2016-07-30T11:15:28Z</time>
      </trkpt>
      <trkpt lat="48.90505" lon="2.07154">
        <ele>66.95</ele>
        <time>2016-07-30T11:15:33Z</time>
      </trkpt>
      <trkpt lat="48.905" lon="2.07154">
        <ele>66.47</ele>
        <time>2016-07-30T11:15:37Z</time>
      </trkpt>
      <trkpt lat="48.90495" lon="2.07154">
        <ele>66.47</ele>
        <time>2016-07-30T11:15:42Z</time>
      </trkpt>
      <trkpt lat="48.90493" lon="2.07148">
        <ele>66.47</ele>
        <time>2016-07-30T11:15:57Z</time>
      </trkpt>
      <trkpt lat="48.90493" lon="2.07148">
        <ele>66.95</ele>
        <time>2016-07-30T11:16:10Z</time>
      </trkpt>
      <trkpt lat="48.90491" lon="2.07149">
        <ele>66.95</ele>
        <time>2016-07-30T11:16:22Z</time>
      </trkpt>
      <trkpt lat="48.90491" lon="2.07152">
        <ele>67.91</ele>
        <time>2016-07-30T11:16:36Z</time>
      </trkpt>
      <trkpt lat="48.90487" lon="2.0715">
        <ele>68.87</ele>
        <time>2016-07-30T11:16:49Z</time>
      </trkpt>
      <trkpt lat="48.90486" lon="2.07149">
        <ele>69.35</ele>
        <time>2016-07-30T11:17:05Z</time>
      </trkpt>
      <trkpt lat="48.90482" lon="2.07151">
        <ele>68.39</ele>
        <time>2016-07-30T11:17:24Z</time>
      </trkpt>
      <trkpt lat="48.90481" lon="2.07151">
        <ele>67.91</ele>
        <time>2016-07-30T11:17:37Z</time>
      </trkpt>
      <trkpt lat="48.9048" lon="2.0715">
        <ele>67.43</ele>
        <time>2016-07-30T11:17:53Z</time>
      </trkpt>
      <trkpt lat="48.90477" lon="2.07144">
        <ele>67.91</ele>
        <time>2016-07-30T11:18:03Z</time>
      </trkpt>
      <trkpt lat="48.90478" lon="2.07141">
        <ele>69.83</ele>
        <time>2016-07-30T11:18:21Z</time>
      </trkpt>
      <trkpt lat="48.90478" lon="2.07139">
        <ele>70.31</ele>
        <time>2016-07-30T11:18:34Z</time>
      </trkpt>
      <trkpt lat="48.90477" lon="2.0714">
        <ele>69.83</ele>
        <time>2016-07-30T11:18:47Z</time>
      </trkpt>
      <trkpt lat="48.90476" lon="2.07137">
        <ele>70.31</ele>
        <time>2016-07-30T11:19:00Z</time>
      </trkpt>
      <trkpt lat="48.90477" lon="2.07134">
        <ele>71.27</ele>
        <time>2016-07-30T11:19:13Z</time>
      </trkpt>
      <trkpt lat="48.90482" lon="2.07135">
        <ele>72.24</ele>
        <time>2016-07-30T11:19:25Z</time>
      </trkpt>
      <trkpt lat="48.90486" lon="2.07139">
        <ele>70.31</ele>
        <time>2016-07-30T11:19:36Z</time>
      </trkpt>
      <trkpt lat="48.90489" lon="2.07134">
        <ele>69.83</ele>
        <time>2016-07-30T11:19:51Z</time>
      </trkpt>
      <trkpt lat="48.90495" lon="2.0713">
        <ele>69.83</ele>
        <time>2016-07-30T11:20:03Z</time>
      </trkpt>
      <trkpt lat="48.905" lon="2.0713">
        <ele>69.83</ele>
        <time>2016-07-30T11:20:18Z</time>
      </trkpt>
      <trkpt lat="48.90502" lon="2.07131">
        <ele>68.87</ele>
        <time>2016-07-30T11:20:36Z</time>
      </trkpt>
      <trkpt lat="48.90504" lon="2.07132">
        <ele>68.87</ele>
        <time>2016-07-30T11:20:54Z</time>
      </trkpt>
      <trkpt lat="48.90506" lon="2.07131">
        <ele>68.87</ele>
        <time>2016-07-30T11:21:08Z</time>
      </trkpt>
      <trkpt lat="48.90507" lon="2.0713">
        <ele>68.39</ele>
        <time>2016-07-30T11:21:22Z</time>
      </trkpt>
      <trkpt lat="48.90508" lon="2.07131">
        <ele>67.91</ele>
        <time>2016-07-30T11:21:33Z</time>
      </trkpt>
      <trkpt lat="48.90508" lon="2.07133">
        <ele>67.91</ele>
        <time>2016-07-30T11:21:47Z</time>
      </trkpt>
      <trkpt lat="48.9051" lon="2.07134">
        <ele>67.91</ele>
        <time>2016-07-30T11:22:01Z</time>
      </trkpt>
      <trkpt lat="48.90511" lon="2.07132">
        <ele>67.91</ele>
        <time>2016-07-30T11:22:15Z</time>
      </trkpt>
      <trkpt lat="48.90511" lon="2.0713">
        <ele>67.43</ele>
        <time>2016-07-30T11:22:31Z</time>
      </trkpt>
      <trkpt lat="48.90512" lon="2.0713">
        <ele>67.91</ele>
        <time>2016-07-30T11:22:51Z</time>
      </trkpt>
      <trkpt lat="48.90511" lon="2.07124">
        <ele>68.87</ele>
        <time>2016-07-30T11:23:03Z</time>
      </trkpt>
      <trkpt lat="48.90512" lon="2.07121">
        <ele>69.83</ele>
        <time>2016-07-30T11:23:17Z</time>
      </trkpt>
      <trkpt lat="48.90511" lon="2.07119">
        <ele>69.35</ele>
        <time>2016-07-30T11:23:30Z</time>
      </trkpt>
      <trkpt lat="48.90511" lon="2.07118">
        <ele>69.35</ele>
        <time>2016-07-30T11:23:47Z</time>
      </trkpt>
      <trkpt lat="48.9051" lon="2.07117">
        <ele>69.35</ele>
        <time>2016-07-30T11:24:01Z</time>
      </trkpt>
      <trkpt lat="48.90507" lon="2.07119">
        <ele>69.83</ele>
        <time>2016-07-30T11:24:14Z</time>
      </trkpt>
      <trkpt lat="48.90498" lon="2.07122">
        <ele>69.35</ele>
        <time>2016-07-30T11:24:27Z</time>
      </trkpt>
      <trkpt lat="48.90494" lon="2.07124">
        <ele>69.83</ele>
        <time>2016-07-30T11:24:40Z</time>
      </trkpt>
      <trkpt lat="48.90493" lon="2.07125">
        <ele>70.31</ele>
        <time>2016-07-30T11:24:51Z</time>
      </trkpt>
      <trkpt lat="48.90491" lon="2.07129">
        <ele>70.31</ele>
        <time>2016-07-30T11:25:08Z</time>
      </trkpt>
      <trkpt lat="48.90488" lon="2.07133">
        <ele>70.31</ele>
        <time>2016-07-30T11:25:21Z</time>
      </trkpt>
      <trkpt lat="48.90487" lon="2.07137">
        <ele>69.83</ele>
        <time>2016-07-30T11:25:35Z</time>
      </trkpt>
      <trkpt lat="48.90485" lon="2.07139">
        <ele>68.39</ele>
        <time>2016-07-30T11:25:48Z</time>
      </trkpt>
      <trkpt lat="48.90484" lon="2.07141">
        <ele>67.91</ele>
        <time>2016-07-30T11:26:02Z</time>
      </trkpt>
      <trkpt lat="48.90483" lon="2.07143">
        <ele>67.43</ele>
        <time>2016-07-30T11:26:19Z</time>
      </trkpt>
      <trkpt lat="48.90475" lon="2.07139">
        <ele>66.95</ele>
        <time>2016-07-30T11:26:30Z</time>
      </trkpt>
      <trkpt lat="48.90471" lon="2.07129">
        <ele>67.43</ele>
        <time>2016-07-30T11:26:44Z</time>
      </trkpt>
      <trkpt lat="48.90467" lon="2.07128">
        <ele>67.91</ele>
        <time>2016-07-30T11:27:00Z</time>
      </trkpt>
      <trkpt lat="48.90468" lon="2.07127">
        <ele>68.39</ele>
        <time>2016-07-30T11:27:12Z</time>
      </trkpt>
      <trkpt lat="48.90468" lon="2.07126">
        <ele>68.87</ele>
        <time>2016-07-30T11:27:29Z</time>
      </trkpt>
      <trkpt lat="48.90466" lon="2.07126">
        <ele>67.91</ele>
        <time>2016-07-30T11:27:46Z</time>
      </trkpt>
      <trkpt lat="48.90466" lon="2.07126">
        <ele>67.91</ele>
        <time>2016-07-30T11:27:58Z</time>
      </trkpt>
      <trkpt lat="48.90466" lon="2.07128">
        <ele>67.43</ele>
        <time>2016-07-30T11:28:09Z</time>
      </trkpt>
      <trkpt lat="48.90466" lon="2.0713">
        <ele>67.91</ele>
        <time>2016-07-30T11:28:28Z</time>
      </trkpt>
      <trkpt lat="48.90466" lon="2.07132">
        <ele>68.39</ele>
        <time>2016-07-30T11:28:45Z</time>
      </trkpt>
      <trkpt lat="48.90467" lon="2.07133">
        <ele>67.91</ele>
        <time>2016-07-30T11:28:50Z</time>
      </trkpt>
      <trkpt lat="48.90468" lon="2.07136">
        <ele>67.91</ele>
        <time>2016-07-30T11:29:00Z</time>
      </trkpt>
      <trkpt lat="48.90473" lon="2.07139">
        <ele>67.91</ele>
        <time>2016-07-30T11:29:13Z</time>
      </trkpt>
      <trkpt lat="48.90475" lon="2.07141">
        <ele>67.91</ele>
        <time>2016-07-30T11:29:28Z</time>
      </trkpt>
      <trkpt lat="48.90476" lon="2.07144">
        <ele>67.91</ele>
        <time>2016-07-30T11:29:46Z</time>
      </trkpt>
      <trkpt lat="48.90476" lon="2.07146">
        <ele>67.91</ele>
        <time>2016-07-30T11:29:59Z</time>
      </trkpt>
      <trkpt lat="48.90477" lon="2.07146">
        <ele>68.39</ele>
        <time>2016-07-30T11:30:15Z</time>
      </trkpt>
      <trkpt lat="48.90478" lon="2.07146">
        <ele>68.39</ele>
        <time>2016-07-30T11:30:29Z</time>
      </trkpt>
      <trkpt lat="48.90479" lon="2.07148">
        <ele>68.87</ele>
        <time>2016-07-30T11:30:43Z</time>
      </trkpt>
      <trkpt lat="48.90481" lon="2.0715">
        <ele>68.39</ele>
        <time>2016-07-30T11:30:59Z</time>
      </trkpt>
      <trkpt lat="48.90483" lon="2.0715">
        <ele>68.39</ele>
        <time>2016-07-30T11:31:10Z</time>
      </trkpt>
      <trkpt lat="48.90485" lon="2.07151">
        <ele>67.91</ele>
        <time>2016-07-30T11:31:26Z</time>
      </trkpt>
      <trkpt lat="48.90486" lon="2.07151">
        <ele>67.91</ele>
        <time>2016-07-30T11:31:41Z</time>
      </trkpt>
      <trkpt lat="48.90489" lon="2.07152">
        <ele>67.91</ele>
        <time>2016-07-30T11:31:55Z</time>
      </trkpt>
      <trkpt lat="48.9049" lon="2.07149">
        <ele>67.43</ele>
        <time>2016-07-30T11:32:07Z</time>
      </trkpt>
      <trkpt lat="48.90492" lon="2.07141">
        <ele>67.91</ele>
        <time>2016-07-30T11:32:22Z</time>
      </trkpt>
      <trkpt lat="48.90494" lon="2.07133">
        <ele>67.91</ele>
        <time>2016-07-30T11:32:35Z</time>
      </trkpt>
      <trkpt lat="48.90495" lon="2.0713">
        <ele>67.43</ele>
        <time>2016-07-30T11:32:50Z</time>
      </trkpt>
      <trkpt lat="48.90496" lon="2.07124">
        <ele>67.91</ele>
        <time>2016-07-30T11:33:12Z</time>
      </trkpt>
      <trkpt lat="48.90497" lon="2.07121">
        <ele>68.87</ele>
        <time>2016-07-30T11:33:29Z</time>
      </trkpt>
      <trkpt lat="48.90497" lon="2.07117">
        <ele>69.35</ele>
        <time>2016-07-30T11:33:44Z</time>
      </trkpt>
      <trkpt lat="48.90499" lon="2.07118">
        <ele>68.87</ele>
        <time>2016-07-30T11:34:01Z</time>
      </trkpt>
      <trkpt lat="48.90503" lon="2.07113">
        <ele>69.35</ele>
        <time>2016-07-30T11:34:14Z</time>
      </trkpt>
      <trkpt lat="48.90506" lon="2.07114">
        <ele>68.87</ele>
        <time>2016-07-30T11:34:29Z</time>
      </trkpt>
      <trkpt lat="48.90508" lon="2.07114">
        <ele>68.39</ele>
        <time>2016-07-30T11:34:42Z</time>
      </trkpt>
      <trkpt lat="48.90512" lon="2.07114">
        <ele>68.39</ele>
        <time>2016-07-30T11:34:55Z</time>
      </trkpt>
      <trkpt lat="48.90528" lon="2.07102">
        <ele>70.79</ele>
        <time>2016-07-30T11:35:12Z</time>
      </trkpt>
      <trkpt lat="48.90529" lon="2.07101">
        <ele>70.79</ele>
        <time>2016-07-30T11:35:14Z</time>
      </trkpt>
      <trkpt lat="48.9054" lon="2.07089">
        <ele>68.87</ele>
        <time>2016-07-30T11:35:27Z</time>
      </trkpt>
      <trkpt lat="48.90544" lon="2.07089">
        <ele>70.31</ele>
        <time>2016-07-30T11:35:46Z</time>
      </trkpt>
      <trkpt lat="48.90545" lon="2.07089">
        <ele>70.79</ele>
        <time>2016-07-30T11:35:49Z</time>
      </trkpt>
      <trkpt lat="48.90553" lon="2.07075">
        <ele>73.2</ele>
        <time>2016-07-30T11:36:04Z</time>
      </trkpt>
      <trkpt lat="48.90556" lon="2.07074">
        <ele>74.16</ele>
        <time>2016-07-30T11:36:18Z</time>
      </trkpt>
      <trkpt lat="48.90562" lon="2.07063">
        <ele>74.64</ele>
        <time>2016-07-30T11:36:33Z</time>
      </trkpt>
      <trkpt lat="48.90566" lon="2.07062">
        <ele>75.12</ele>
        <time>2016-07-30T11:36:50Z</time>
      </trkpt>
      <trkpt lat="48.90568" lon="2.07064">
        <ele>75.12</ele>
        <time>2016-07-30T11:37:19Z</time>
      </trkpt>
      <trkpt lat="48.90569" lon="2.07063">
        <ele>74.64</ele>
        <time>2016-07-30T11:37:46Z</time>
      </trkpt>
      <trkpt lat="48.90572" lon="2.07059">
        <ele>74.64</ele>
        <time>2016-07-30T11:37:51Z</time>
      </trkpt>
      <trkpt lat="48.90578" lon="2.07046">
        <ele>75.6</ele>
        <time>2016-07-30T11:38:07Z</time>
      </trkpt>
      <trkpt lat="48.90579" lon="2.07045">
        <ele>75.6</ele>
        <time>2016-07-30T11:38:08Z</time>
      </trkpt>
      <trkpt lat="48.90591" lon="2.07015">
        <ele>78</ele>
        <time>2016-07-30T11:38:25Z</time>
      </trkpt>
      <trkpt lat="48.90601" lon="2.06993">
        <ele>79.45</ele>
        <time>2016-07-30T11:38:40Z</time>
      </trkpt>
      <trkpt lat="48.9061" lon="2.06967">
        <ele>81.85</ele>
        <time>2016-07-30T11:38:54Z</time>
      </trkpt>
      <trkpt lat="48.90626" lon="2.06953">
        <ele>86.66</ele>
        <time>2016-07-30T11:39:10Z</time>
      </trkpt>
      <trkpt lat="48.9064" lon="2.06933">
        <ele>86.18</ele>
        <time>2016-07-30T11:39:26Z</time>
      </trkpt>
      <trkpt lat="48.90655" lon="2.06915">
        <ele>83.29</ele>
        <time>2016-07-30T11:39:43Z</time>
      </trkpt>
      <trkpt lat="48.90671" lon="2.06903">
        <ele>83.29</ele>
        <time>2016-07-30T11:39:57Z</time>
      </trkpt>
      <trkpt lat="48.9069" lon="2.06885">
        <ele>85.21</ele>
        <time>2016-07-30T11:40:13Z</time>
      </trkpt>
      <trkpt lat="48.90693" lon="2.06881">
        <ele>85.21</ele>
        <time>2016-07-30T11:40:16Z</time>
      </trkpt>
      <trkpt lat="48.90697" lon="2.06866">
        <ele>83.77</ele>
        <time>2016-07-30T11:40:31Z</time>
      </trkpt>
      <trkpt lat="48.90708" lon="2.06854">
        <ele>83.77</ele>
        <time>2016-07-30T11:40:41Z</time>
      </trkpt>
      <trkpt lat="48.90711" lon="2.06832">
        <ele>82.81</ele>
        <time>2016-07-30T11:40:55Z</time>
      </trkpt>
      <trkpt lat="48.9071" lon="2.06816">
        <ele>81.37</ele>
        <time>2016-07-30T11:41:04Z</time>
      </trkpt>
      <trkpt lat="48.90707" lon="2.06783">
        <ele>79.93</ele>
        <time>2016-07-30T11:41:21Z</time>
      </trkpt>
      <trkpt lat="48.90704" lon="2.06777">
        <ele>79.93</ele>
        <time>2016-07-30T11:41:28Z</time>
      </trkpt>
      <trkpt lat="48.90709" lon="2.06781">
        <ele>77.52</ele>
        <time>2016-07-30T11:41:43Z</time>
      </trkpt>
      <trkpt lat="48.90709" lon="2.06778">
        <ele>77.04</ele>
        <time>2016-07-30T11:41:56Z</time>
      </trkpt>
      <trkpt lat="48.90708" lon="2.06774">
        <ele>76.08</ele>
        <time>2016-07-30T11:42:12Z</time>
      </trkpt>
      <trkpt lat="48.90708" lon="2.06772">
        <ele>76.56</ele>
        <time>2016-07-30T11:42:21Z</time>
      </trkpt>
      <trkpt lat="48.90709" lon="2.06766">
        <ele>77.04</ele>
        <time>2016-07-30T11:42:35Z</time>
      </trkpt>
      <trkpt lat="48.9071" lon="2.06769">
        <ele>76.56</ele>
        <time>2016-07-30T11:42:48Z</time>
      </trkpt>
      <trkpt lat="48.90711" lon="2.06771">
        <ele>75.6</ele>
        <time>2016-07-30T11:43:05Z</time>
      </trkpt>
      <trkpt lat="48.90714" lon="2.06777">
        <ele>74.64</ele>
        <time>2016-07-30T11:43:16Z</time>
      </trkpt>
      <trkpt lat="48.90716" lon="2.06779">
        <ele>74.16</ele>
        <time>2016-07-30T11:43:29Z</time>
      </trkpt>
      <trkpt lat="48.90718" lon="2.06779">
        <ele>73.68</ele>
        <time>2016-07-30T11:43:44Z</time>
      </trkpt>
      <trkpt lat="48.90717" lon="2.0678">
        <ele>73.68</ele>
        <time>2016-07-30T11:43:57Z</time>
      </trkpt>
      <trkpt lat="48.90719" lon="2.06779">
        <ele>75.12</ele>
        <time>2016-07-30T11:44:15Z</time>
      </trkpt>
      <trkpt lat="48.90719" lon="2.06779">
        <ele>74.64</ele>
        <time>2016-07-30T11:44:26Z</time>
      </trkpt>
      <trkpt lat="48.90717" lon="2.06781">
        <ele>76.08</ele>
        <time>2016-07-30T11:44:41Z</time>
      </trkpt>
      <trkpt lat="48.90718" lon="2.06783">
        <ele>75.6</ele>
        <time>2016-07-30T11:44:46Z</time>
      </trkpt>
      <trkpt lat="48.9072" lon="2.06784">
        <ele>75.12</ele>
        <time>2016-07-30T11:44:48Z</time>
      </trkpt>
      <trkpt lat="48.90725" lon="2.06779">
        <ele>76.08</ele>
        <time>2016-07-30T11:45:02Z</time>
      </trkpt>
      <trkpt lat="48.90724" lon="2.06779">
        <ele>76.08</ele>
        <time>2016-07-30T11:45:22Z</time>
      </trkpt>
      <trkpt lat="48.90724" lon="2.06778">
        <ele>76.56</ele>
        <time>2016-07-30T11:45:46Z</time>
      </trkpt>
      <trkpt lat="48.90725" lon="2.06778">
        <ele>75.6</ele>
        <time>2016-07-30T11:46:07Z</time>
      </trkpt>
      <trkpt lat="48.90724" lon="2.0678">
        <ele>75.12</ele>
        <time>2016-07-30T11:46:39Z</time>
      </trkpt>
      <trkpt lat="48.90725" lon="2.0678">
        <ele>76.08</ele>
        <time>2016-07-30T11:47:01Z</time>
      </trkpt>
      <trkpt lat="48.90724" lon="2.0678">
        <ele>74.16</ele>
        <time>2016-07-30T11:47:23Z</time>
      </trkpt>
      <trkpt lat="48.90722" lon="2.06779">
        <ele>73.68</ele>
        <time>2016-07-30T11:48:01Z</time>
      </trkpt>
      <trkpt lat="48.90721" lon="2.06777">
        <ele>73.68</ele>
        <time>2016-07-30T11:48:26Z</time>
      </trkpt>
      <trkpt lat="48.90722" lon="2.06778">
        <ele>73.2</ele>
        <time>2016-07-30T11:48:45Z</time>
      </trkpt>
      <trkpt lat="48.90721" lon="2.06779">
        <ele>73.2</ele>
        <time>2016-07-30T11:48:58Z</time>
      </trkpt>
      <trkpt lat="48.90714" lon="2.06777">
        <ele>73.2</ele>
        <time>2016-07-30T11:49:36Z</time>
      </trkpt>
      <trkpt lat="48.90713" lon="2.06777">
        <ele>72.72</ele>
        <time>2016-07-30T11:49:43Z</time>
      </trkpt>
      <trkpt lat="48.90712" lon="2.06778">
        <ele>72.24</ele>
        <time>2016-07-30T11:49:51Z</time>
      </trkpt>
      <trkpt lat="48.90719" lon="2.06783">
        <ele>73.2</ele>
        <time>2016-07-30T11:50:04Z</time>
      </trkpt>
      <trkpt lat="48.90719" lon="2.06783">
        <ele>73.2</ele>
        <time>2016-07-30T11:50:26Z</time>
      </trkpt>
      <trkpt lat="48.90719" lon="2.06786">
        <ele>73.2</ele>
        <time>2016-07-30T11:50:48Z</time>
      </trkpt>
      <trkpt lat="48.9073" lon="2.06799">
        <ele>72.72</ele>
        <time>2016-07-30T11:50:57Z</time>
      </trkpt>
      <trkpt lat="48.90745" lon="2.06786">
        <ele>70.31</ele>
        <time>2016-07-30T11:51:12Z</time>
      </trkpt>
      <trkpt lat="48.90753" lon="2.06773">
        <ele>71.76</ele>
        <time>2016-07-30T11:51:26Z</time>
      </trkpt>
      <trkpt lat="48.90758" lon="2.06765">
        <ele>72.24</ele>
        <time>2016-07-30T11:51:41Z</time>
      </trkpt>
      <trkpt lat="48.90765" lon="2.06756">
        <ele>71.76</ele>
        <time>2016-07-30T11:51:56Z</time>
      </trkpt>
      <trkpt lat="48.90775" lon="2.0674">
        <ele>71.27</ele>
        <time>2016-07-30T11:52:10Z</time>
      </trkpt>
      <trkpt lat="48.90785" lon="2.06724">
        <ele>71.27</ele>
        <time>2016-07-30T11:52:24Z</time>
      </trkpt>
      <trkpt lat="48.90782" lon="2.06711">
        <ele>71.27</ele>
        <time>2016-07-30T11:52:31Z</time>
      </trkpt>
      <trkpt lat="48.9078" lon="2.06703">
        <ele>72.24</ele>
        <time>2016-07-30T11:52:35Z</time>
      </trkpt>
      <trkpt lat="48.90766" lon="2.06685">
        <ele>72.72</ele>
        <time>2016-07-30T11:52:50Z</time>
      </trkpt>
      <trkpt lat="48.90762" lon="2.06673">
        <ele>72.72</ele>
        <time>2016-07-30T11:52:56Z</time>
      </trkpt>
      <trkpt lat="48.90753" lon="2.06646">
        <ele>72.72</ele>
        <time>2016-07-30T11:53:10Z</time>
      </trkpt>
      <trkpt lat="48.90747" lon="2.06622">
        <ele>72.72</ele>
        <time>2016-07-30T11:53:26Z</time>
      </trkpt>
      <trkpt lat="48.90741" lon="2.06601">
        <ele>73.68</ele>
        <time>2016-07-30T11:53:39Z</time>
      </trkpt>
      <trkpt lat="48.90734" lon="2.06583">
        <ele>74.16</ele>
        <time>2016-07-30T11:53:53Z</time>
      </trkpt>
      <trkpt lat="48.90729" lon="2.06571">
        <ele>74.64</ele>
        <time>2016-07-30T11:54:03Z</time>
      </trkpt>
      <trkpt lat="48.90716" lon="2.06551">
        <ele>74.16</ele>
        <time>2016-07-30T11:54:19Z</time>
      </trkpt>
      <trkpt lat="48.90727" lon="2.06536">
        <ele>74.16</ele>
        <time>2016-07-30T11:54:35Z</time>
      </trkpt>
      <trkpt lat="48.90731" lon="2.06531">
        <ele>74.64</ele>
        <time>2016-07-30T11:54:43Z</time>
      </trkpt>
      <trkpt lat="48.90737" lon="2.06522">
        <ele>75.12</ele>
        <time>2016-07-30T11:54:48Z</time>
      </trkpt>
      <trkpt lat="48.90752" lon="2.06507">
        <ele>76.08</ele>
        <time>2016-07-30T11:55:04Z</time>
      </trkpt>
      <trkpt lat="48.90754" lon="2.06506">
        <ele>76.08</ele>
        <time>2016-07-30T11:55:06Z</time>
      </trkpt>
      <trkpt lat="48.90773" lon="2.06496">
        <ele>75.12</ele>
        <time>2016-07-30T11:55:22Z</time>
      </trkpt>
      <trkpt lat="48.90784" lon="2.06485">
        <ele>76.56</ele>
        <time>2016-07-30T11:55:35Z</time>
      </trkpt>
      <trkpt lat="48.90795" lon="2.0648">
        <ele>76.08</ele>
        <time>2016-07-30T11:55:51Z</time>
      </trkpt>
      <trkpt lat="48.90799" lon="2.06476">
        <ele>74.64</ele>
        <time>2016-07-30T11:56:07Z</time>
      </trkpt>
      <trkpt lat="48.90801" lon="2.06471">
        <ele>74.64</ele>
        <time>2016-07-30T11:56:19Z</time>
      </trkpt>
      <trkpt lat="48.90795" lon="2.0646">
        <ele>73.2</ele>
        <time>2016-07-30T11:56:34Z</time>
      </trkpt>
      <trkpt lat="48.90793" lon="2.06453">
        <ele>73.2</ele>
        <time>2016-07-30T11:56:46Z</time>
      </trkpt>
      <trkpt lat="48.90792" lon="2.06453">
        <ele>72.72</ele>
        <time>2016-07-30T11:57:00Z</time>
      </trkpt>
      <trkpt lat="48.9079" lon="2.0645">
        <ele>72.24</ele>
        <time>2016-07-30T11:57:12Z</time>
      </trkpt>
      <trkpt lat="48.9079" lon="2.06451">
        <ele>72.24</ele>
        <time>2016-07-30T11:57:24Z</time>
      </trkpt>
      <trkpt lat="48.90789" lon="2.06453">
        <ele>72.24</ele>
        <time>2016-07-30T11:57:25Z</time>
      </trkpt>
      <trkpt lat="48.90785" lon="2.06464">
        <ele>71.27</ele>
        <time>2016-07-30T11:57:38Z</time>
      </trkpt>
      <trkpt lat="48.90784" lon="2.06469">
        <ele>69.83</ele>
        <time>2016-07-30T11:57:51Z</time>
      </trkpt>
      <trkpt lat="48.90786" lon="2.0647">
        <ele>70.79</ele>
        <time>2016-07-30T11:58:08Z</time>
      </trkpt>
      <trkpt lat="48.90788" lon="2.0646">
        <ele>71.27</ele>
        <time>2016-07-30T11:58:23Z</time>
      </trkpt>
      <trkpt lat="48.9079" lon="2.06464">
        <ele>71.27</ele>
        <time>2016-07-30T11:58:41Z</time>
      </trkpt>
      <trkpt lat="48.9079" lon="2.06468">
        <ele>72.72</ele>
        <time>2016-07-30T11:59:17Z</time>
      </trkpt>
      <trkpt lat="48.9079" lon="2.06471">
        <ele>73.68</ele>
        <time>2016-07-30T11:59:40Z</time>
      </trkpt>
      <trkpt lat="48.90788" lon="2.06475">
        <ele>76.56</ele>
        <time>2016-07-30T12:00:13Z</time>
      </trkpt>
      <trkpt lat="48.90787" lon="2.06476">
        <ele>76.56</ele>
        <time>2016-07-30T12:00:32Z</time>
      </trkpt>
      <trkpt lat="48.90786" lon="2.06477">
        <ele>76.56</ele>
        <time>2016-07-30T12:00:55Z</time>
      </trkpt>
      <trkpt lat="48.90786" lon="2.06472">
        <ele>76.56</ele>
        <time>2016-07-30T12:01:17Z</time>
      </trkpt>
      <trkpt lat="48.90784" lon="2.0647">
        <ele>75.6</ele>
        <time>2016-07-30T12:01:20Z</time>
      </trkpt>
      <trkpt lat="48.90775" lon="2.06466">
        <ele>73.68</ele>
        <time>2016-07-30T12:01:33Z</time>
      </trkpt>
      <trkpt lat="48.90774" lon="2.06466">
        <ele>73.2</ele>
        <time>2016-07-30T12:01:35Z</time>
      </trkpt>
      <trkpt lat="48.90761" lon="2.06478">
        <ele>75.12</ele>
        <time>2016-07-30T12:01:49Z</time>
      </trkpt>
      <trkpt lat="48.9075" lon="2.06485">
        <ele>78</ele>
        <time>2016-07-30T12:02:01Z</time>
      </trkpt>
      <trkpt lat="48.90735" lon="2.06494">
        <ele>79.93</ele>
        <time>2016-07-30T12:02:14Z</time>
      </trkpt>
      <trkpt lat="48.9073" lon="2.06508">
        <ele>82.33</ele>
        <time>2016-07-30T12:02:27Z</time>
      </trkpt>
      <trkpt lat="48.90724" lon="2.06518">
        <ele>83.77</ele>
        <time>2016-07-30T12:02:41Z</time>
      </trkpt>
      <trkpt lat="48.90724" lon="2.06532">
        <ele>84.73</ele>
        <time>2016-07-30T12:02:50Z</time>
      </trkpt>
      <trkpt lat="48.90724" lon="2.06542">
        <ele>85.21</ele>
        <time>2016-07-30T12:02:56Z</time>
      </trkpt>
      <trkpt lat="48.90727" lon="2.06574">
        <ele>86.66</ele>
        <time>2016-07-30T12:03:12Z</time>
      </trkpt>
      <trkpt lat="48.90727" lon="2.0659">
        <ele>86.66</ele>
        <time>2016-07-30T12:03:26Z</time>
      </trkpt>
      <trkpt lat="48.90732" lon="2.06584">
        <ele>83.29</ele>
        <time>2016-07-30T12:03:43Z</time>
      </trkpt>
      <trkpt lat="48.90726" lon="2.06571">
        <ele>80.89</ele>
        <time>2016-07-30T12:03:56Z</time>
      </trkpt>
      <trkpt lat="48.90714" lon="2.06546">
        <ele>77.04</ele>
        <time>2016-07-30T12:04:15Z</time>
      </trkpt>
      <trkpt lat="48.90716" lon="2.06525">
        <ele>77.52</ele>
        <time>2016-07-30T12:04:32Z</time>
      </trkpt>
      <trkpt lat="48.90719" lon="2.06505">
        <ele>80.41</ele>
        <time>2016-07-30T12:04:48Z</time>
      </trkpt>
      <trkpt lat="48.90717" lon="2.06488">
        <ele>84.25</ele>
        <time>2016-07-30T12:04:57Z</time>
      </trkpt>
      <trkpt lat="48.90711" lon="2.0646">
        <ele>85.21</ele>
        <time>2016-07-30T12:05:13Z</time>
      </trkpt>
      <trkpt lat="48.90711" lon="2.06459">
        <ele>85.21</ele>
        <time>2016-07-30T12:05:15Z</time>
      </trkpt>
      <trkpt lat="48.90705" lon="2.06433">
        <ele>84.25</ele>
        <time>2016-07-30T12:05:29Z</time>
      </trkpt>
      <trkpt lat="48.90697" lon="2.06404">
        <ele>83.77</ele>
        <time>2016-07-30T12:05:43Z</time>
      </trkpt>
      <trkpt lat="48.9069" lon="2.06378">
        <ele>83.29</ele>
        <time>2016-07-30T12:05:57Z</time>
      </trkpt>
      <trkpt lat="48.90686" lon="2.06366">
        <ele>83.77</ele>
        <time>2016-07-30T12:06:03Z</time>
      </trkpt>
      <trkpt lat="48.9066" lon="2.06355">
        <ele>76.08</ele>
        <time>2016-07-30T12:06:16Z</time>
      </trkpt>
      <trkpt lat="48.90657" lon="2.06355">
        <ele>75.6</ele>
        <time>2016-07-30T12:06:23Z</time>
      </trkpt>
      <trkpt lat="48.90634" lon="2.06349">
        <ele>74.64</ele>
        <time>2016-07-30T12:06:39Z</time>
      </trkpt>
      <trkpt lat="48.90613" lon="2.06349">
        <ele>73.68</ele>
        <time>2016-07-30T12:06:55Z</time>
      </trkpt>
      <trkpt lat="48.90592" lon="2.0635">
        <ele>73.2</ele>
        <time>2016-07-30T12:07:12Z</time>
      </trkpt>
      <trkpt lat="48.9057" lon="2.06353">
        <ele>72.72</ele>
        <time>2016-07-30T12:07:30Z</time>
      </trkpt>
      <trkpt lat="48.90549" lon="2.06354">
        <ele>72.24</ele>
        <time>2016-07-30T12:07:47Z</time>
      </trkpt>
      <trkpt lat="48.90542" lon="2.06356">
        <ele>72.72</ele>
        <time>2016-07-30T12:07:58Z</time>
      </trkpt>
      <trkpt lat="48.90525" lon="2.06356">
        <ele>72.24</ele>
        <time>2016-07-30T12:08:13Z</time>
      </trkpt>
      <trkpt lat="48.90502" lon="2.06359">
        <ele>72.24</ele>
        <time>2016-07-30T12:08:29Z</time>
      </trkpt>
      <trkpt lat="48.90487" lon="2.06357">
        <ele>74.16</ele>
        <time>2016-07-30T12:08:44Z</time>
      </trkpt>
      <trkpt lat="48.90468" lon="2.06363">
        <ele>77.04</ele>
        <time>2016-07-30T12:09:00Z</time>
      </trkpt>
      <trkpt lat="48.90452" lon="2.06365">
        <ele>78</ele>
        <time>2016-07-30T12:09:13Z</time>
      </trkpt>
      <trkpt lat="48.90438" lon="2.06368">
        <ele>76.56</ele>
        <time>2016-07-30T12:09:28Z</time>
      </trkpt>
      <trkpt lat="48.90427" lon="2.0637">
        <ele>76.08</ele>
        <time>2016-07-30T12:09:35Z</time>
      </trkpt>
      <trkpt lat="48.90413" lon="2.06379">
        <ele>76.08</ele>
        <time>2016-07-30T12:09:45Z</time>
      </trkpt>
      <trkpt lat="48.9041" lon="2.06385">
        <ele>74.64</ele>
        <time>2016-07-30T12:09:58Z</time>
      </trkpt>
      <trkpt lat="48.90409" lon="2.06391">
        <ele>74.64</ele>
        <time>2016-07-30T12:10:25Z</time>
      </trkpt>
      <trkpt lat="48.904" lon="2.06401">
        <ele>74.64</ele>
        <time>2016-07-30T12:10:38Z</time>
      </trkpt>
      <trkpt lat="48.90393" lon="2.06405">
        <ele>74.64</ele>
        <time>2016-07-30T12:10:45Z</time>
      </trkpt>
      <trkpt lat="48.90389" lon="2.06413">
        <ele>75.12</ele>
        <time>2016-07-30T12:10:51Z</time>
      </trkpt>
      <trkpt lat="48.9039" lon="2.06422">
        <ele>75.6</ele>
        <time>2016-07-30T12:10:56Z</time>
      </trkpt>
      <trkpt lat="48.90392" lon="2.06447">
        <ele>76.56</ele>
        <time>2016-07-30T12:11:11Z</time>
      </trkpt>
      <trkpt lat="48.90388" lon="2.06455">
        <ele>74.16</ele>
        <time>2016-07-30T12:11:30Z</time>
      </trkpt>
      <trkpt lat="48.90385" lon="2.06464">
        <ele>73.68</ele>
        <time>2016-07-30T12:11:35Z</time>
      </trkpt>
      <trkpt lat="48.9038" lon="2.06496">
        <ele>71.76</ele>
        <time>2016-07-30T12:11:52Z</time>
      </trkpt>
      <trkpt lat="48.90372" lon="2.0652">
        <ele>72.24</ele>
        <time>2016-07-30T12:12:07Z</time>
      </trkpt>
      <trkpt lat="48.90361" lon="2.06538">
        <ele>73.2</ele>
        <time>2016-07-30T12:12:22Z</time>
      </trkpt>
      <trkpt lat="48.90351" lon="2.06564">
        <ele>75.12</ele>
        <time>2016-07-30T12:12:37Z</time>
      </trkpt>
      <trkpt lat="48.90345" lon="2.06591">
        <ele>76.56</ele>
        <time>2016-07-30T12:12:52Z</time>
      </trkpt>
      <trkpt lat="48.90345" lon="2.06593">
        <ele>76.56</ele>
        <time>2016-07-30T12:12:53Z</time>
      </trkpt>
      <trkpt lat="48.9034" lon="2.06627">
        <ele>78</ele>
        <time>2016-07-30T12:13:12Z</time>
      </trkpt>
      <trkpt lat="48.90334" lon="2.06636">
        <ele>78.97</ele>
        <time>2016-07-30T12:13:19Z</time>
      </trkpt>
      <trkpt lat="48.90331" lon="2.06648">
        <ele>78.48</ele>
        <time>2016-07-30T12:13:28Z</time>
      </trkpt>
      <trkpt lat="48.90327" lon="2.06661">
        <ele>78.48</ele>
        <time>2016-07-30T12:13:36Z</time>
      </trkpt>
      <trkpt lat="48.9032" lon="2.06684">
        <ele>78.48</ele>
        <time>2016-07-30T12:13:50Z</time>
      </trkpt>
      <trkpt lat="48.90312" lon="2.06713">
        <ele>78.97</ele>
        <time>2016-07-30T12:14:07Z</time>
      </trkpt>
      <trkpt lat="48.90307" lon="2.06729">
        <ele>78.48</ele>
        <time>2016-07-30T12:14:23Z</time>
      </trkpt>
      <trkpt lat="48.90307" lon="2.06734">
        <ele>78</ele>
        <time>2016-07-30T12:14:35Z</time>
      </trkpt>
      <trkpt lat="48.90311" lon="2.06741">
        <ele>78.48</ele>
        <time>2016-07-30T12:14:52Z</time>
      </trkpt>
      <trkpt lat="48.90313" lon="2.06744">
        <ele>78.97</ele>
        <time>2016-07-30T12:14:58Z</time>
      </trkpt>
      <trkpt lat="48.90313" lon="2.06747">
        <ele>78.48</ele>
        <time>2016-07-30T12:15:04Z</time>
      </trkpt>
      <trkpt lat="48.9032" lon="2.06747">
        <ele>78</ele>
        <time>2016-07-30T12:15:17Z</time>
      </trkpt>
      <trkpt lat="48.90316" lon="2.06746">
        <ele>78</ele>
        <time>2016-07-30T12:15:32Z</time>
      </trkpt>
      <trkpt lat="48.90314" lon="2.06749">
        <ele>77.04</ele>
        <time>2016-07-30T12:15:53Z</time>
      </trkpt>
      <trkpt lat="48.90312" lon="2.06744">
        <ele>75.6</ele>
        <time>2016-07-30T12:16:05Z</time>
      </trkpt>
      <trkpt lat="48.90313" lon="2.06741">
        <ele>76.08</ele>
        <time>2016-07-30T12:16:34Z</time>
      </trkpt>
      <trkpt lat="48.9031" lon="2.06739">
        <ele>76.08</ele>
        <time>2016-07-30T12:16:53Z</time>
      </trkpt>
      <trkpt lat="48.90307" lon="2.06739">
        <ele>75.6</ele>
        <time>2016-07-30T12:17:01Z</time>
      </trkpt>
      <trkpt lat="48.90306" lon="2.06736">
        <ele>75.12</ele>
        <time>2016-07-30T12:17:03Z</time>
      </trkpt>
      <trkpt lat="48.90317" lon="2.06709">
        <ele>76.56</ele>
        <time>2016-07-30T12:17:22Z</time>
      </trkpt>
      <trkpt lat="48.90318" lon="2.06709">
        <ele>76.08</ele>
        <time>2016-07-30T12:17:23Z</time>
      </trkpt>
      <trkpt lat="48.9032" lon="2.06713">
        <ele>74.16</ele>
        <time>2016-07-30T12:17:28Z</time>
      </trkpt>
      <trkpt lat="48.90321" lon="2.06716">
        <ele>72.24</ele>
        <time>2016-07-30T12:17:42Z</time>
      </trkpt>
      <trkpt lat="48.90316" lon="2.06716">
        <ele>70.79</ele>
        <time>2016-07-30T12:17:55Z</time>
      </trkpt>
      <trkpt lat="48.90315" lon="2.06719">
        <ele>71.27</ele>
        <time>2016-07-30T12:18:29Z</time>
      </trkpt>
      <trkpt lat="48.90315" lon="2.0672">
        <ele>71.27</ele>
        <time>2016-07-30T12:18:53Z</time>
      </trkpt>
      <trkpt lat="48.90315" lon="2.06722">
        <ele>72.72</ele>
        <time>2016-07-30T12:19:26Z</time>
      </trkpt>
      <trkpt lat="48.90316" lon="2.0672">
        <ele>72.24</ele>
        <time>2016-07-30T12:19:45Z</time>
      </trkpt>
      <trkpt lat="48.90318" lon="2.06719">
        <ele>72.72</ele>
        <time>2016-07-30T12:20:16Z</time>
      </trkpt>
      <trkpt lat="48.90318" lon="2.0672">
        <ele>72.24</ele>
        <time>2016-07-30T12:20:38Z</time>
      </trkpt>
      <trkpt lat="48.90319" lon="2.06721">
        <ele>71.76</ele>
        <time>2016-07-30T12:21:04Z</time>
      </trkpt>
      <trkpt lat="48.90319" lon="2.06722">
        <ele>71.76</ele>
        <time>2016-07-30T12:21:22Z</time>
      </trkpt>
      <trkpt lat="48.9032" lon="2.06721">
        <ele>72.24</ele>
        <time>2016-07-30T12:21:41Z</time>
      </trkpt>
      <trkpt lat="48.90319" lon="2.06712">
        <ele>72.24</ele>
        <time>2016-07-30T12:22:00Z</time>
      </trkpt>
      <trkpt lat="48.90316" lon="2.067">
        <ele>71.76</ele>
        <time>2016-07-30T12:22:13Z</time>
      </trkpt>
      <trkpt lat="48.90323" lon="2.0668">
        <ele>73.68</ele>
        <time>2016-07-30T12:22:27Z</time>
      </trkpt>
      <trkpt lat="48.90333" lon="2.06653">
        <ele>74.64</ele>
        <time>2016-07-30T12:22:44Z</time>
      </trkpt>
      <trkpt lat="48.90345" lon="2.06626">
        <ele>75.12</ele>
        <time>2016-07-30T12:23:00Z</time>
      </trkpt>
      <trkpt lat="48.90347" lon="2.06619">
        <ele>75.6</ele>
        <time>2016-07-30T12:23:04Z</time>
      </trkpt>
      <trkpt lat="48.90348" lon="2.0661">
        <ele>75.6</ele>
        <time>2016-07-30T12:23:09Z</time>
      </trkpt>
      <trkpt lat="48.90357" lon="2.06586">
        <ele>77.04</ele>
        <time>2016-07-30T12:23:23Z</time>
      </trkpt>
      <trkpt lat="48.90359" lon="2.06582">
        <ele>77.04</ele>
        <time>2016-07-30T12:23:25Z</time>
      </trkpt>
      <trkpt lat="48.90359" lon="2.06579">
        <ele>77.04</ele>
        <time>2016-07-30T12:23:29Z</time>
      </trkpt>
      <trkpt lat="48.90354" lon="2.06588">
        <ele>77.04</ele>
        <time>2016-07-30T12:23:33Z</time>
      </trkpt>
      <trkpt lat="48.90345" lon="2.06599">
        <ele>77.52</ele>
        <time>2016-07-30T12:23:46Z</time>
      </trkpt>
      <trkpt lat="48.90345" lon="2.066">
        <ele>77.04</ele>
        <time>2016-07-30T12:23:49Z</time>
      </trkpt>
      <trkpt lat="48.90353" lon="2.06588">
        <ele>78</ele>
        <time>2016-07-30T12:24:05Z</time>
      </trkpt>
      <trkpt lat="48.90358" lon="2.06573">
        <ele>77.52</ele>
        <time>2016-07-30T12:24:18Z</time>
      </trkpt>
      <trkpt lat="48.90366" lon="2.0655">
        <ele>76.56</ele>
        <time>2016-07-30T12:24:33Z</time>
      </trkpt>
      <trkpt lat="48.90374" lon="2.0653">
        <ele>77.52</ele>
        <time>2016-07-30T12:24:48Z</time>
      </trkpt>
      <trkpt lat="48.90383" lon="2.06506">
        <ele>80.41</ele>
        <time>2016-07-30T12:25:02Z</time>
      </trkpt>
      <trkpt lat="48.90392" lon="2.06481">
        <ele>81.85</ele>
        <time>2016-07-30T12:25:19Z</time>
      </trkpt>
      <trkpt lat="48.90392" lon="2.06479">
        <ele>82.33</ele>
        <time>2016-07-30T12:25:20Z</time>
      </trkpt>
      <trkpt lat="48.90395" lon="2.06472">
        <ele>82.81</ele>
        <time>2016-07-30T12:25:25Z</time>
      </trkpt>
      <trkpt lat="48.90396" lon="2.06471">
        <ele>82.81</ele>
        <time>2016-07-30T12:25:27Z</time>
      </trkpt>
      <trkpt lat="48.90399" lon="2.06464">
        <ele>82.81</ele>
        <time>2016-07-30T12:25:31Z</time>
      </trkpt>
      <trkpt lat="48.904" lon="2.06436">
        <ele>78.48</ele>
        <time>2016-07-30T12:25:47Z</time>
      </trkpt>
      <trkpt lat="48.904" lon="2.06423">
        <ele>76.56</ele>
        <time>2016-07-30T12:25:53Z</time>
      </trkpt>
      <trkpt lat="48.90413" lon="2.06407">
        <ele>72.72</ele>
        <time>2016-07-30T12:26:09Z</time>
      </trkpt>
      <trkpt lat="48.90409" lon="2.06404">
        <ele>70.79</ele>
        <time>2016-07-30T12:26:26Z</time>
      </trkpt>
      <trkpt lat="48.90411" lon="2.06401">
        <ele>70.31</ele>
        <time>2016-07-30T12:26:42Z</time>
      </trkpt>
      <trkpt lat="48.90411" lon="2.06401">
        <ele>70.31</ele>
        <time>2016-07-30T12:26:50Z</time>
      </trkpt>
    </trkseg>
  </trk>
</gpx>